Time,TemperatureF,DewpointF,PressureIn,WindDirection,WindDirectionDegrees,WindSpeedMPH,WindSpeedGustMPH,Humidity,HourlyPrecipIn,Conditions,Clouds,dailyrainin,SoftwareType,DateUTC
2013-06-03 00:00:00,73.6,44.3,29.65,South,191,0.0,0.0,35,0.00,,,0.00,VWS V14.01,2013-06-03 04:00:00,
2013-06-03 00:01:00,73.6,44.3,29.65,NNW,339,0.0,2.7,35,0.00,,,0.00,VWS V14.01,2013-06-03 04:01:00,
2013-06-03 00:02:00,73.6,43.5,29.65,NNW,339,0.0,0.0,34,0.00,,,0.00,VWS V14.01,2013-06-03 04:02:00,
2013-06-03 00:03:00,73.6,44.3,29.65,North,3,0.0,0.0,35,0.00,,,0.00,VWS V14.01,2013-06-03 04:03:00,
2013-06-03 00:04:00,73.6,43.5,29.65,SE,146,0.0,0.0,34,0.00,,,0.00,VWS V14.01,2013-06-03 04:04:00,
2013-06-03 00:07:00,73.4,43.3,29.65,WSW,257,0.0,0.0,34,0.00,,,0.00,VWS V14.01,2013-06-03 04:07:00,
2013-06-03 00:08:00,73.4,43.3,29.65,SE,142,2.7,2.7,34,0.00,,,0.00,VWS V14.01,2013-06-03 04:08:00,
2013-06-03 00:09:00,73.4,43.3,29.65,SSE,152,3.6,5.4,34,0.00,,,0.00,VWS V14.01,2013-06-03 04:09:00,
2013-06-03 00:10:00,73.4,43.3,29.65,SSE,156,2.7,3.6,34,0.00,,,0.00,VWS V14.01,2013-06-03 04:10:00,
2013-06-03 00:12:00,73.4,43.3,29.65,South,169,0.0,0.0,34,0.00,,,0.00,VWS V14.01,2013-06-03 04:12:00,
2013-06-03 00:14:00,73.4,44.1,29.65,NNW,341,0.0,0.0,35,0.00,,,0.00,VWS V14.01,2013-06-03 04:14:00,
2013-06-03 00:17:00,73.2,44.0,29.65,NNW,328,0.0,0.0,35,0.00,,,0.00,VWS V14.01,2013-06-03 04:17:00,
2013-06-03 00:18:00,73.2,44.0,29.65,SE,140,0.0,3.1,35,0.00,,,0.00,VWS V14.01,2013-06-03 04:18:00,
2013-06-03 00:21:00,73.2,44.0,29.65,SSE,165,0.0,0.0,35,0.00,,,0.00,VWS V14.01,2013-06-03 04:21:00,
2013-06-03 00:22:00,73.0,43.8,29.65,SSE,165,0.0,0.0,35,0.00,,,0.00,VWS V14.01,2013-06-03 04:22:00,
2013-06-03 00:24:00,73.0,44.5,29.65,SSE,165,0.0,0.0,36,0.00,,,0.00,VWS V14.01,2013-06-03 04:24:00,
2013-06-03 00:25:00,73.0,44.5,29.65,SSE,165,0.0,0.0,36,0.00,,,0.00,VWS V14.01,2013-06-03 04:25:00,
2013-06-03 00:26:00,73.0,44.5,29.65,WSW,253,0.0,0.0,36,0.00,,,0.00,VWS V14.01,2013-06-03 04:26:00,
2013-06-03 00:28:00,72.9,44.4,29.65,WSW,252,0.0,0.0,36,0.00,,,0.00,VWS V14.01,2013-06-03 04:28:00,
2013-06-03 00:29:00,72.9,44.4,29.65,WSW,253,0.0,0.0,36,0.00,,,0.00,VWS V14.01,2013-06-03 04:29:00,
2013-06-03 00:31:00,72.9,44.4,29.65,WSW,252,0.0,0.0,36,0.00,,,0.00,VWS V14.01,2013-06-03 04:31:00,
2013-06-03 00:34:00,72.9,44.4,29.65,WNW,284,0.0,0.0,36,0.00,,,0.00,VWS V14.01,2013-06-03 04:34:00,
2013-06-03 00:35:00,72.9,44.4,29.65,WNW,284,0.0,0.0,36,0.00,,,0.00,VWS V14.01,2013-06-03 04:35:00,
2013-06-03 00:36:00,72.7,44.2,29.65,WNW,284,0.0,0.0,36,0.00,,,0.00,VWS V14.01,2013-06-03 04:36:00,
2013-06-03 00:38:00,72.7,44.2,29.65,West,264,0.0,0.0,36,0.00,,,0.00,VWS V14.01,2013-06-03 04:38:00,
2013-06-03 00:40:00,72.7,44.2,29.65,West,264,0.0,0.0,36,0.00,,,0.00,VWS V14.01,2013-06-03 04:40:00,
2013-06-03 00:41:00,72.7,44.2,29.65,SW,225,0.0,0.0,36,0.00,,,0.00,VWS V14.01,2013-06-03 04:41:00,
2013-06-03 00:42:00,72.7,44.2,29.65,SSE,166,0.0,0.0,36,0.00,,,0.00,VWS V14.01,2013-06-03 04:42:00,
2013-06-03 00:43:00,72.7,44.2,29.65,SSE,166,0.0,0.0,36,0.00,,,0.00,VWS V14.01,2013-06-03 04:43:00,
2013-06-03 00:46:00,72.5,44.1,29.65,SSE,166,0.0,0.0,36,0.00,,,0.00,VWS V14.01,2013-06-03 04:46:00,
2013-06-03 00:47:00,72.5,44.1,29.65,South,173,0.0,0.0,36,0.00,,,0.00,VWS V14.01,2013-06-03 04:47:00,
2013-06-03 00:48:00,72.5,44.1,29.65,South,173,0.0,0.0,36,0.00,,,0.00,VWS V14.01,2013-06-03 04:48:00,
2013-06-03 00:49:00,72.5,44.1,29.65,ENE,71,0.0,0.0,36,0.00,,,0.00,VWS V14.01,2013-06-03 04:49:00,
2013-06-03 00:51:00,72.5,45.5,29.65,SSW,207,0.0,0.0,38,0.00,,,0.00,VWS V14.01,2013-06-03 04:51:00,
2013-06-03 00:52:00,72.5,45.5,29.65,SSW,207,0.0,0.0,38,0.00,,,0.00,VWS V14.01,2013-06-03 04:52:00,
2013-06-03 00:54:00,72.3,44.6,29.62,WNW,296,0.0,0.0,37,0.00,,,0.00,VWS V14.01,2013-06-03 04:54:00,
2013-06-03 00:55:00,72.3,44.6,29.62,WNW,296,0.0,0.0,37,0.00,,,0.00,VWS V14.01,2013-06-03 04:55:00,
2013-06-03 00:56:00,72.3,44.6,29.62,West,276,0.0,0.0,37,0.00,,,0.00,VWS V14.01,2013-06-03 04:56:00,
2013-06-03 00:57:00,72.3,44.6,29.62,West,265,0.0,0.0,37,0.00,,,0.00,VWS V14.01,2013-06-03 04:57:00,
2013-06-03 01:00:00,72.3,45.3,29.62,SSE,150,0.0,0.0,38,0.00,,,0.00,VWS V14.01,2013-06-03 05:00:00,
2013-06-03 01:01:00,72.3,45.3,29.62,WNW,303,2.2,4.0,38,0.00,,,0.00,VWS V14.01,2013-06-03 05:01:00,
2013-06-03 01:02:00,72.3,46.0,29.62,ENE,66,2.2,4.0,39,0.00,,,0.00,VWS V14.01,2013-06-03 05:02:00,
2013-06-03 01:04:00,72.1,45.8,29.62,SSE,147,3.6,3.6,39,0.00,,,0.00,VWS V14.01,2013-06-03 05:04:00,
2013-06-03 01:06:00,72.3,46.7,29.62,SE,142,0.0,0.0,40,0.00,,,0.00,VWS V14.01,2013-06-03 05:06:00,
2013-06-03 01:07:00,72.1,46.5,29.62,SSE,159,0.0,3.1,40,0.00,,,0.00,VWS V14.01,2013-06-03 05:07:00,
2013-06-03 01:09:00,72.3,48.0,29.62,SSW,207,4.0,4.0,42,0.00,,,0.00,VWS V14.01,2013-06-03 05:09:00,
2013-06-03 01:11:00,72.1,47.2,29.62,SSE,154,0.0,0.0,41,0.00,,,0.00,VWS V14.01,2013-06-03 05:11:00,
2013-06-03 01:12:00,72.1,47.2,29.62,SSE,160,0.0,3.1,41,0.00,,,0.00,VWS V14.01,2013-06-03 05:12:00,
2013-06-03 01:16:00,72.1,46.5,29.62,East,86,0.0,0.0,40,0.00,,,0.00,VWS V14.01,2013-06-03 05:16:00,
2013-06-03 01:17:00,72.1,46.5,29.62,East,86,0.0,0.0,40,0.00,,,0.00,VWS V14.01,2013-06-03 05:17:00,
2013-06-03 01:19:00,72.1,46.5,29.62,SSE,155,0.0,3.1,40,0.00,,,0.00,VWS V14.01,2013-06-03 05:19:00,
2013-06-03 01:21:00,72.1,46.5,29.62,SSE,149,0.0,0.0,40,0.00,,,0.00,VWS V14.01,2013-06-03 05:21:00,
2013-06-03 01:23:00,72.1,47.2,29.62,SSE,151,0.0,0.0,41,0.00,,,0.00,VWS V14.01,2013-06-03 05:23:00,
2013-06-03 01:24:00,72.0,47.0,29.62,SSE,151,0.0,0.0,41,0.00,,,0.00,VWS V14.01,2013-06-03 05:24:00,
2013-06-03 01:26:00,72.0,47.0,29.62,South,191,0.0,0.0,41,0.00,,,0.00,VWS V14.01,2013-06-03 05:26:00,
2013-06-03 01:29:00,72.0,47.0,29.62,SSE,161,0.0,0.0,41,0.00,,,0.00,VWS V14.01,2013-06-03 05:29:00,
2013-06-03 01:31:00,72.0,47.0,29.62,South,177,3.6,3.6,41,0.00,,,0.00,VWS V14.01,2013-06-03 05:31:00,
2013-06-03 01:32:00,72.0,47.0,29.62,South,173,0.0,3.6,41,0.00,,,0.00,VWS V14.01,2013-06-03 05:32:00,
2013-06-03 01:34:00,72.0,47.0,29.62,SSE,167,0.0,3.1,41,0.00,,,0.00,VWS V14.01,2013-06-03 05:34:00,
2013-06-03 01:36:00,71.8,46.8,29.62,SSE,167,0.0,0.0,41,0.00,,,0.00,VWS V14.01,2013-06-03 05:36:00,
2013-06-03 01:38:00,71.8,47.5,29.62,South,172,3.1,3.1,42,0.00,,,0.00,VWS V14.01,2013-06-03 05:38:00,
2013-06-03 01:41:00,71.8,47.5,29.62,South,178,3.6,4.0,42,0.00,,,0.00,VWS V14.01,2013-06-03 05:41:00,
2013-06-03 01:42:00,71.8,47.5,29.62,South,178,0.0,4.0,42,0.00,,,0.00,VWS V14.01,2013-06-03 05:42:00,
2013-06-03 01:43:00,71.8,47.5,29.62,SE,144,3.1,3.1,42,0.00,,,0.00,VWS V14.01,2013-06-03 05:43:00,
2013-06-03 01:46:00,71.6,47.3,29.62,South,184,0.0,0.0,42,0.00,,,0.00,VWS V14.01,2013-06-03 05:46:00,
2013-06-03 01:47:00,71.6,47.3,29.62,South,184,0.0,0.0,42,0.00,,,0.00,VWS V14.01,2013-06-03 05:47:00,
2013-06-03 01:48:00,71.6,47.3,29.62,South,190,0.0,0.0,42,0.00,,,0.00,VWS V14.01,2013-06-03 05:48:00,
2013-06-03 01:49:00,71.6,47.9,29.62,SW,233,0.0,0.0,43,0.00,,,0.00,VWS V14.01,2013-06-03 05:49:00,
2013-06-03 01:52:00,71.6,47.9,29.62,SE,139,0.0,0.0,43,0.00,,,0.00,VWS V14.01,2013-06-03 05:52:00,
2013-06-03 01:53:00,71.6,47.9,29.62,WSW,250,2.7,2.7,43,0.00,,,0.00,VWS V14.01,2013-06-03 05:53:00,
2013-06-03 01:54:00,71.6,48.6,29.62,NE,53,0.0,0.0,44,0.00,,,0.00,VWS V14.01,2013-06-03 05:54:00,
2013-06-03 01:58:00,71.4,48.4,29.62,WSW,248,0.0,0.0,44,0.00,,,0.00,VWS V14.01,2013-06-03 05:58:00,
2013-06-03 01:59:00,71.4,48.4,29.62,WSW,250,0.0,0.0,44,0.00,,,0.00,VWS V14.01,2013-06-03 05:59:00,
2013-06-03 02:00:00,71.4,48.4,29.62,WNW,284,0.0,0.0,44,0.00,,,0.00,VWS V14.01,2013-06-03 06:00:00,
2013-06-03 02:02:00,71.2,48.2,29.62,West,262,0.0,2.2,44,0.00,,,0.00,VWS V14.01,2013-06-03 06:02:00,
2013-06-03 02:05:00,71.2,48.2,29.62,WSW,238,0.0,0.0,44,0.00,,,0.00,VWS V14.01,2013-06-03 06:05:00,
2013-06-03 02:06:00,71.2,48.2,29.62,WSW,238,0.0,0.0,44,0.00,,,0.00,VWS V14.01,2013-06-03 06:06:00,
2013-06-03 02:08:00,71.2,48.2,29.62,SW,231,0.0,0.0,44,0.00,,,0.00,VWS V14.01,2013-06-03 06:08:00,
2013-06-03 02:09:00,71.2,48.2,29.62,SW,231,0.0,0.0,44,0.00,,,0.00,VWS V14.01,2013-06-03 06:09:00,
2013-06-03 02:11:00,71.2,48.8,29.62,WSW,257,0.0,0.0,45,0.00,,,0.00,VWS V14.01,2013-06-03 06:11:00,
2013-06-03 02:12:00,71.2,48.2,29.62,West,262,0.0,0.0,44,0.00,,,0.00,VWS V14.01,2013-06-03 06:12:00,
2013-06-03 02:13:00,71.2,48.8,29.62,West,262,0.0,0.0,45,0.00,,,0.00,VWS V14.01,2013-06-03 06:13:00,
2013-06-03 02:15:00,71.2,48.8,29.62,SE,131,0.0,0.0,45,0.00,,,0.00,VWS V14.01,2013-06-03 06:15:00,
2013-06-03 02:16:00,71.1,48.7,29.62,SE,131,0.0,0.0,45,0.00,,,0.00,VWS V14.01,2013-06-03 06:16:00,
2013-06-03 02:17:00,71.1,48.7,29.62,SE,131,0.0,0.0,45,0.00,,,0.00,VWS V14.01,2013-06-03 06:17:00,
2013-06-03 02:20:00,71.1,48.7,29.62,SW,232,0.0,0.0,45,0.00,,,0.00,VWS V14.01,2013-06-03 06:20:00,
2013-06-03 02:22:00,71.1,49.3,29.62,WSW,240,0.0,0.0,46,0.00,,,0.00,VWS V14.01,2013-06-03 06:22:00,
2013-06-03 02:25:00,71.1,49.3,29.62,WSW,240,0.0,0.0,46,0.00,,,0.00,VWS V14.01,2013-06-03 06:25:00,
2013-06-03 02:27:00,71.1,49.3,29.62,WSW,240,0.0,0.0,46,0.00,,,0.00,VWS V14.01,2013-06-03 06:27:00,
2013-06-03 02:28:00,70.9,49.1,29.62,WSW,240,0.0,0.0,46,0.00,,,0.00,VWS V14.01,2013-06-03 06:28:00,
2013-06-03 02:29:00,70.9,49.1,29.62,WSW,240,0.0,0.0,46,0.00,,,0.00,VWS V14.01,2013-06-03 06:29:00,
2013-06-03 02:30:00,70.9,49.1,29.62,WSW,240,0.0,0.0,46,0.00,,,0.00,VWS V14.01,2013-06-03 06:30:00,
2013-06-03 02:32:00,70.9,49.1,29.62,WSW,240,0.0,0.0,46,0.00,,,0.00,VWS V14.01,2013-06-03 06:32:00,
2013-06-03 02:33:00,71.1,49.8,29.62,WSW,240,0.0,0.0,47,0.00,,,0.00,VWS V14.01,2013-06-03 06:33:00,
2013-06-03 02:35:00,70.9,49.7,29.62,WSW,240,0.0,0.0,47,0.00,,,0.00,VWS V14.01,2013-06-03 06:35:00,
2013-06-03 02:36:00,70.9,49.7,29.62,WSW,240,0.0,0.0,47,0.00,,,0.00,VWS V14.01,2013-06-03 06:36:00,
2013-06-03 02:37:00,70.9,49.1,29.62,WSW,240,0.0,0.0,46,0.00,,,0.00,VWS V14.01,2013-06-03 06:37:00,
2013-06-03 02:38:00,70.9,49.1,29.62,WSW,240,0.0,0.0,46,0.00,,,0.00,VWS V14.01,2013-06-03 06:38:00,
2013-06-03 02:41:00,70.9,49.7,29.62,SW,233,0.0,0.0,47,0.00,,,0.00,VWS V14.01,2013-06-03 06:41:00,
2013-06-03 02:42:00,70.9,49.7,29.62,SW,233,0.0,0.0,47,0.00,,,0.00,VWS V14.01,2013-06-03 06:42:00,
2013-06-03 02:43:00,70.9,49.7,29.62,SW,219,0.0,0.0,47,0.00,,,0.00,VWS V14.01,2013-06-03 06:43:00,
2013-06-03 02:47:00,70.7,50.1,29.62,SW,222,0.0,0.0,48,0.00,,,0.00,VWS V14.01,2013-06-03 06:47:00,
2013-06-03 02:49:00,70.7,50.1,29.62,West,277,4.0,4.0,48,0.00,,,0.00,VWS V14.01,2013-06-03 06:49:00,
2013-06-03 02:50:00,70.7,50.1,29.62,West,277,0.0,2.7,48,0.00,,,0.00,VWS V14.01,2013-06-03 06:50:00,
2013-06-03 02:53:00,70.5,49.9,29.62,SSW,194,4.5,4.5,48,0.00,,,0.00,VWS V14.01,2013-06-03 06:53:00,
2013-06-03 02:54:00,70.5,50.5,29.62,WSW,248,0.0,4.5,49,0.00,,,0.00,VWS V14.01,2013-06-03 06:54:00,
2013-06-03 02:55:00,70.5,50.5,29.62,West,280,0.0,2.7,49,0.00,,,0.00,VWS V14.01,2013-06-03 06:55:00,
2013-06-03 02:56:00,70.5,50.5,29.62,West,264,4.5,4.5,49,0.00,,,0.00,VWS V14.01,2013-06-03 06:56:00,
2013-06-03 02:58:00,70.3,50.8,29.62,SSE,166,2.2,3.1,50,0.00,,,0.00,VWS V14.01,2013-06-03 06:58:00,
2013-06-03 03:00:00,70.3,51.4,29.62,West,261,3.6,3.6,51,0.00,,,0.00,VWS V14.01,2013-06-03 07:00:00,
2013-06-03 03:01:00,70.2,51.2,29.62,WNW,287,3.1,4.0,51,0.00,,,0.00,VWS V14.01,2013-06-03 07:01:00,
2013-06-03 03:03:00,70.2,52.2,29.62,WSW,252,2.7,3.6,53,0.00,,,0.00,VWS V14.01,2013-06-03 07:03:00,
2013-06-03 03:05:00,70.2,52.2,29.62,West,268,3.1,3.1,53,0.00,,,0.00,VWS V14.01,2013-06-03 07:05:00,
2013-06-03 03:07:00,70.0,52.1,29.62,WNW,298,3.1,3.1,53,0.00,,,0.00,VWS V14.01,2013-06-03 07:07:00,
2013-06-03 03:08:00,70.0,52.1,29.62,WNW,298,0.0,3.1,53,0.00,,,0.00,VWS V14.01,2013-06-03 07:08:00,
2013-06-03 03:09:00,70.0,52.1,29.62,WNW,299,3.1,3.1,53,0.00,,,0.00,VWS V14.01,2013-06-03 07:09:00,
2013-06-03 03:12:00,69.8,52.4,29.62,West,279,2.2,3.6,54,0.00,,,0.00,VWS V14.01,2013-06-03 07:12:00,
2013-06-03 03:13:00,69.8,52.9,29.62,SW,218,4.0,4.0,55,0.00,,,0.00,VWS V14.01,2013-06-03 07:13:00,
2013-06-03 03:14:00,69.8,52.9,29.62,West,273,3.6,4.0,55,0.00,,,0.00,VWS V14.01,2013-06-03 07:14:00,
2013-06-03 03:16:00,69.4,52.6,29.62,West,277,0.0,0.0,55,0.00,,,0.00,VWS V14.01,2013-06-03 07:16:00,
2013-06-03 03:17:00,69.4,52.6,29.62,West,270,0.0,0.0,55,0.00,,,0.00,VWS V14.01,2013-06-03 07:17:00,
2013-06-03 03:18:00,69.4,52.6,29.62,West,270,0.0,0.0,55,0.00,,,0.00,VWS V14.01,2013-06-03 07:18:00,
2013-06-03 03:20:00,69.3,51.9,29.62,West,261,2.2,2.2,54,0.00,,,0.00,VWS V14.01,2013-06-03 07:20:00,
2013-06-03 03:22:00,69.3,51.9,29.62,West,271,0.0,0.0,54,0.00,,,0.00,VWS V14.01,2013-06-03 07:22:00,
2013-06-03 03:23:00,69.3,51.9,29.62,West,271,0.0,0.0,54,0.00,,,0.00,VWS V14.01,2013-06-03 07:23:00,
2013-06-03 03:26:00,69.3,51.9,29.62,WSW,240,2.7,3.1,54,0.00,,,0.00,VWS V14.01,2013-06-03 07:26:00,
2013-06-03 03:28:00,69.1,51.8,29.62,West,261,2.7,2.7,54,0.00,,,0.00,VWS V14.01,2013-06-03 07:28:00,
2013-06-03 03:30:00,69.1,51.8,29.62,West,261,0.0,0.0,54,0.00,,,0.00,VWS V14.01,2013-06-03 07:30:00,
2013-06-03 03:31:00,69.1,51.8,29.62,WSW,258,2.2,2.7,54,0.00,,,0.00,VWS V14.01,2013-06-03 07:31:00,
2013-06-03 03:33:00,69.1,52.2,29.62,West,265,4.0,4.0,55,0.00,,,0.00,VWS V14.01,2013-06-03 07:33:00,
2013-06-03 03:35:00,68.9,52.1,29.62,West,263,0.0,0.0,55,0.00,,,0.00,VWS V14.01,2013-06-03 07:35:00,
2013-06-03 03:37:00,68.9,52.6,29.62,WSW,250,3.6,3.6,56,0.00,,,0.00,VWS V14.01,2013-06-03 07:37:00,
2013-06-03 03:40:00,68.7,52.4,29.62,West,268,0.0,0.0,56,0.00,,,0.00,VWS V14.01,2013-06-03 07:40:00,
2013-06-03 03:41:00,68.7,52.4,29.62,West,274,3.6,3.6,56,0.00,,,0.00,VWS V14.01,2013-06-03 07:41:00,
2013-06-03 03:44:00,68.5,52.7,29.62,WNW,285,0.0,2.2,57,0.00,,,0.00,VWS V14.01,2013-06-03 07:44:00,
2013-06-03 03:45:00,68.5,53.2,29.62,West,275,0.0,0.0,58,0.00,,,0.00,VWS V14.01,2013-06-03 07:45:00,
2013-06-03 03:47:00,68.4,52.5,29.62,West,260,0.0,0.0,57,0.00,,,0.00,VWS V14.01,2013-06-03 07:47:00,
2013-06-03 03:48:00,68.4,52.5,29.62,West,260,0.0,0.0,57,0.00,,,0.00,VWS V14.01,2013-06-03 07:48:00,
2013-06-03 03:49:00,68.4,53.0,29.62,West,266,2.2,3.1,58,0.00,,,0.00,VWS V14.01,2013-06-03 07:49:00,
2013-06-03 03:50:00,68.4,53.0,29.62,WSW,245,0.0,2.2,58,0.00,,,0.00,VWS V14.01,2013-06-03 07:50:00,
2013-06-03 03:53:00,68.4,52.5,29.62,WSW,252,0.0,0.0,57,0.00,,,0.00,VWS V14.01,2013-06-03 07:53:00,
2013-06-03 03:55:00,68.2,52.4,29.62,SW,232,0.0,0.0,57,0.00,,,0.00,VWS V14.01,2013-06-03 07:55:00,
2013-06-03 03:56:00,68.2,52.4,29.62,SW,232,0.0,0.0,57,0.00,,,0.00,VWS V14.01,2013-06-03 07:56:00,
2013-06-03 03:58:00,68.2,52.9,29.62,WSW,238,2.2,3.1,58,0.00,,,0.00,VWS V14.01,2013-06-03 07:58:00,
2013-06-03 04:00:00,68.2,52.9,29.62,South,189,0.0,0.0,58,0.00,,,0.00,VWS V14.01,2013-06-03 08:00:00,
2013-06-03 04:01:00,68.2,52.9,29.62,SSW,205,0.0,0.0,58,0.00,,,0.00,VWS V14.01,2013-06-03 08:01:00,
2013-06-03 04:02:00,68.2,52.9,29.62,SSW,205,0.0,0.0,58,0.00,,,0.00,VWS V14.01,2013-06-03 08:02:00,
2013-06-03 04:03:00,68.2,52.9,29.62,SSW,206,0.0,0.0,58,0.00,,,0.00,VWS V14.01,2013-06-03 08:03:00,
2013-06-03 04:04:00,68.2,52.9,29.62,South,190,3.1,3.1,58,0.00,,,0.00,VWS V14.01,2013-06-03 08:04:00,
2013-06-03 04:06:00,68.2,52.9,29.62,WSW,237,2.2,3.1,58,0.00,,,0.00,VWS V14.01,2013-06-03 08:06:00,
2013-06-03 04:07:00,68.2,52.9,29.62,WSW,237,0.0,2.2,58,0.00,,,0.00,VWS V14.01,2013-06-03 08:07:00,
2013-06-03 04:08:00,68.0,52.7,29.62,SW,235,0.0,0.0,58,0.00,,,0.00,VWS V14.01,2013-06-03 08:08:00,
2013-06-03 04:12:00,68.0,52.7,29.62,SW,222,6.3,6.3,58,0.00,,,0.00,VWS V14.01,2013-06-03 08:12:00,
2013-06-03 04:13:00,68.0,52.7,29.62,SW,231,4.9,7.6,58,0.00,,,0.00,VWS V14.01,2013-06-03 08:13:00,
2013-06-03 04:14:00,68.0,53.2,29.62,SSW,196,6.3,6.3,59,0.00,,,0.00,VWS V14.01,2013-06-03 08:14:00,
2013-06-03 04:16:00,67.8,53.4,29.62,SW,226,3.1,3.1,60,0.00,,,0.00,VWS V14.01,2013-06-03 08:16:00,
2013-06-03 04:17:00,67.6,53.3,29.62,WSW,239,0.0,0.0,60,0.00,,,0.00,VWS V14.01,2013-06-03 08:17:00,
2013-06-03 04:19:00,67.5,52.7,29.62,WSW,248,0.0,0.0,59,0.00,,,0.00,VWS V14.01,2013-06-03 08:19:00,
2013-06-03 04:21:00,67.5,52.7,29.62,West,261,3.1,3.1,59,0.00,,,0.00,VWS V14.01,2013-06-03 08:21:00,
2013-06-03 04:24:00,67.1,52.3,29.62,SW,216,2.7,5.4,59,0.00,,,0.00,VWS V14.01,2013-06-03 08:24:00,
2013-06-03 04:27:00,66.9,52.1,29.62,WNW,300,0.0,3.6,59,0.00,,,0.00,VWS V14.01,2013-06-03 08:27:00,
2013-06-03 04:28:00,66.9,52.1,29.62,WNW,292,0.0,0.0,59,0.00,,,0.00,VWS V14.01,2013-06-03 08:28:00,
2013-06-03 04:30:00,66.7,52.0,29.62,West,273,0.0,0.0,59,0.00,,,0.00,VWS V14.01,2013-06-03 08:30:00,
2013-06-03 04:31:00,66.7,52.0,29.62,WSW,256,0.0,0.0,59,0.00,,,0.00,VWS V14.01,2013-06-03 08:31:00,
2013-06-03 04:32:00,66.6,51.8,29.62,WSW,242,4.0,4.5,59,0.00,,,0.00,VWS V14.01,2013-06-03 08:32:00,
2013-06-03 04:36:00,66.6,52.3,29.62,West,261,0.0,0.0,60,0.00,,,0.00,VWS V14.01,2013-06-03 08:36:00,
2013-06-03 04:37:00,66.6,52.3,29.62,WNW,283,0.0,0.0,60,0.00,,,0.00,VWS V14.01,2013-06-03 08:37:00,
2013-06-03 04:38:00,66.6,52.3,29.62,WNW,283,0.0,0.0,60,0.00,,,0.00,VWS V14.01,2013-06-03 08:38:00,
2013-06-03 04:43:00,66.4,52.1,29.62,WNW,283,0.0,0.0,60,0.00,,,0.00,VWS V14.01,2013-06-03 08:43:00,
2013-06-03 04:44:00,66.4,52.1,29.62,WNW,283,0.0,0.0,60,0.00,,,0.00,VWS V14.01,2013-06-03 08:44:00,
2013-06-03 04:48:00,66.4,52.1,29.62,West,261,0.0,0.0,60,0.00,,,0.00,VWS V14.01,2013-06-03 08:48:00,
2013-06-03 04:49:00,66.4,52.1,29.62,West,261,0.0,0.0,60,0.00,,,0.00,VWS V14.01,2013-06-03 08:49:00,
2013-06-03 04:50:00,66.2,51.9,29.62,West,261,0.0,0.0,60,0.00,,,0.00,VWS V14.01,2013-06-03 08:50:00,
2013-06-03 04:53:00,66.4,52.1,29.59,West,266,0.0,0.0,60,0.00,,,0.00,VWS V14.01,2013-06-03 08:53:00,
2013-06-03 04:54:00,66.2,51.9,29.59,West,266,0.0,0.0,60,0.00,,,0.00,VWS V14.01,2013-06-03 08:54:00,
2013-06-03 04:55:00,66.2,51.9,29.59,West,266,0.0,0.0,60,0.00,,,0.00,VWS V14.01,2013-06-03 08:55:00,
2013-06-03 04:56:00,66.4,52.1,29.59,West,266,0.0,0.0,60,0.00,,,0.00,VWS V14.01,2013-06-03 08:56:00,
2013-06-03 04:58:00,66.4,52.1,29.59,West,266,0.0,0.0,60,0.00,,,0.00,VWS V14.01,2013-06-03 08:58:00,
2013-06-03 04:59:00,66.4,52.1,29.59,West,266,0.0,0.0,60,0.00,,,0.00,VWS V14.01,2013-06-03 08:59:00,
2013-06-03 05:00:00,66.4,52.1,29.59,SW,232,0.0,0.0,60,0.00,,,0.00,VWS V14.01,2013-06-03 09:00:00,
2013-06-03 05:02:00,66.4,52.1,29.59,SW,232,0.0,0.0,60,0.00,,,0.00,VWS V14.01,2013-06-03 09:02:00,
2013-06-03 05:04:00,66.4,52.1,29.59,SW,232,0.0,0.0,60,0.00,,,0.00,VWS V14.01,2013-06-03 09:04:00,
2013-06-03 05:05:00,66.4,52.1,29.59,SW,232,0.0,0.0,60,0.00,,,0.00,VWS V14.01,2013-06-03 09:05:00,
2013-06-03 05:06:00,66.4,52.5,29.59,SW,232,0.0,0.0,61,0.00,,,0.00,VWS V14.01,2013-06-03 09:06:00,
2013-06-03 05:07:00,66.4,52.5,29.59,SW,232,0.0,0.0,61,0.00,,,0.00,VWS V14.01,2013-06-03 09:07:00,
2013-06-03 05:10:00,66.2,52.4,29.62,SW,232,0.0,0.0,61,0.00,,,0.00,VWS V14.01,2013-06-03 09:10:00,
2013-06-03 05:11:00,66.4,52.5,29.62,SW,232,0.0,0.0,61,0.00,,,0.00,VWS V14.01,2013-06-03 09:11:00,
2013-06-03 05:13:00,66.2,52.4,29.62,SW,232,0.0,0.0,61,0.00,,,0.00,VWS V14.01,2013-06-03 09:13:00,
2013-06-03 05:15:00,66.4,52.5,29.62,SW,232,0.0,0.0,61,0.00,,,0.00,VWS V14.01,2013-06-03 09:15:00,
2013-06-03 05:16:00,66.4,52.5,29.62,SW,232,0.0,0.0,61,0.00,,,0.00,VWS V14.01,2013-06-03 09:16:00,
2013-06-03 05:17:00,66.2,52.4,29.62,SW,232,0.0,0.0,61,0.00,,,0.00,VWS V14.01,2013-06-03 09:17:00,
2013-06-03 05:18:00,66.2,52.4,29.62,SW,232,0.0,0.0,61,0.00,,,0.00,VWS V14.01,2013-06-03 09:18:00,
2013-06-03 05:20:00,66.4,52.5,29.62,SW,232,0.0,0.0,61,0.00,,,0.00,VWS V14.01,2013-06-03 09:20:00,
2013-06-03 05:21:00,66.2,52.4,29.62,SW,232,0.0,0.0,61,0.00,,,0.00,VWS V14.01,2013-06-03 09:21:00,
2013-06-03 05:22:00,66.4,52.5,29.62,SW,232,0.0,0.0,61,0.00,,,0.00,VWS V14.01,2013-06-03 09:22:00,
2013-06-03 05:23:00,66.4,52.5,29.62,SW,232,0.0,0.0,61,0.00,,,0.00,VWS V14.01,2013-06-03 09:23:00,
2013-06-03 05:25:00,66.4,52.5,29.62,SW,232,0.0,0.0,61,0.00,,,0.00,VWS V14.01,2013-06-03 09:25:00,
2013-06-03 05:26:00,66.4,52.5,29.62,SW,232,0.0,0.0,61,0.00,,,0.00,VWS V14.01,2013-06-03 09:26:00,
2013-06-03 05:29:00,66.2,52.4,29.62,SW,232,0.0,0.0,61,0.00,,,0.00,VWS V14.01,2013-06-03 09:29:00,
2013-06-03 05:30:00,66.2,52.4,29.62,SW,230,0.0,0.0,61,0.00,,,0.00,VWS V14.01,2013-06-03 09:30:00,
2013-06-03 05:31:00,66.2,52.4,29.62,WSW,240,0.0,0.0,61,0.00,,,0.00,VWS V14.01,2013-06-03 09:31:00,
2013-06-03 05:32:00,66.2,52.4,29.62,WSW,240,0.0,0.0,61,0.00,,,0.00,VWS V14.01,2013-06-03 09:32:00,
2013-06-03 05:34:00,66.2,52.4,29.62,WSW,240,0.0,0.0,61,0.00,,,0.00,VWS V14.01,2013-06-03 09:34:00,
2013-06-03 05:35:00,66.2,52.4,29.62,WSW,240,0.0,0.0,61,0.00,,,0.00,VWS V14.01,2013-06-03 09:35:00,
2013-06-03 05:36:00,66.2,52.4,29.62,WSW,240,0.0,0.0,61,0.00,,,0.00,VWS V14.01,2013-06-03 09:36:00,
2013-06-03 05:37:00,66.2,52.4,29.62,WSW,240,0.0,0.0,61,0.00,,,0.00,VWS V14.01,2013-06-03 09:37:00,
2013-06-03 05:38:00,66.2,52.4,29.62,WSW,240,0.0,0.0,61,0.00,,,0.00,VWS V14.01,2013-06-03 09:38:00,
2013-06-03 05:40:00,66.2,52.4,29.62,SSW,200,0.0,0.0,61,0.00,,,0.00,VWS V14.01,2013-06-03 09:40:00,
2013-06-03 05:41:00,66.2,52.4,29.62,SSW,196,0.0,0.0,61,0.00,,,0.00,VWS V14.01,2013-06-03 09:41:00,
2013-06-03 05:42:00,66.2,52.4,29.62,SSW,196,0.0,0.0,61,0.00,,,0.00,VWS V14.01,2013-06-03 09:42:00,
2013-06-03 05:43:00,66.2,52.4,29.62,SSW,198,0.0,0.0,61,0.00,,,0.00,VWS V14.01,2013-06-03 09:43:00,
2013-06-03 05:45:00,66.2,52.8,29.62,SSW,205,0.0,0.0,62,0.00,,,0.00,VWS V14.01,2013-06-03 09:45:00,
2013-06-03 05:48:00,66.2,52.8,29.62,SSW,205,0.0,0.0,62,0.00,,,0.00,VWS V14.01,2013-06-03 09:48:00,
2013-06-03 05:49:00,66.2,52.8,29.62,SSW,205,0.0,0.0,62,0.00,,,0.00,VWS V14.01,2013-06-03 09:49:00,
2013-06-03 05:51:00,66.2,52.8,29.62,SW,217,0.0,0.0,62,0.00,,,0.00,VWS V14.01,2013-06-03 09:51:00,
2013-06-03 05:53:00,66.2,52.8,29.62,SW,217,0.0,0.0,62,0.00,,,0.00,VWS V14.01,2013-06-03 09:53:00,
2013-06-03 05:54:00,66.2,52.8,29.62,SW,217,0.0,0.0,62,0.00,,,0.00,VWS V14.01,2013-06-03 09:54:00,
2013-06-03 05:57:00,66.2,52.8,29.62,SW,217,0.0,0.0,62,0.00,,,0.00,VWS V14.01,2013-06-03 09:57:00,
2013-06-03 05:59:00,66.2,52.8,29.62,SW,217,0.0,0.0,62,0.00,,,0.00,VWS V14.01,2013-06-03 09:59:00,
2013-06-03 06:00:00,66.2,52.8,29.62,SW,217,0.0,0.0,62,0.00,,,0.00,VWS V14.01,2013-06-03 10:00:00,
2013-06-03 06:01:00,66.2,52.8,29.62,SW,217,0.0,0.0,62,0.00,,,0.00,VWS V14.01,2013-06-03 10:01:00,
2013-06-03 06:02:00,66.2,52.8,29.62,SW,217,0.0,0.0,62,0.00,,,0.00,VWS V14.01,2013-06-03 10:02:00,
2013-06-03 06:04:00,66.2,52.8,29.62,SW,217,0.0,0.0,62,0.00,,,0.00,VWS V14.01,2013-06-03 10:04:00,
2013-06-03 06:07:00,66.4,53.0,29.62,SW,225,0.0,0.0,62,0.00,,,0.00,VWS V14.01,2013-06-03 10:07:00,
2013-06-03 06:08:00,66.4,53.4,29.62,WNW,291,2.7,2.7,63,0.00,,,0.00,VWS V14.01,2013-06-03 10:08:00,
2013-06-03 06:09:00,66.4,53.4,29.62,West,259,3.1,3.1,63,0.00,,,0.00,VWS V14.01,2013-06-03 10:09:00,
2013-06-03 06:13:00,66.2,53.2,29.62,SW,226,0.0,0.0,63,0.00,,,0.00,VWS V14.01,2013-06-03 10:13:00,
2013-06-03 06:14:00,66.2,53.2,29.62,West,280,0.0,0.0,63,0.00,,,0.00,VWS V14.01,2013-06-03 10:14:00,
2013-06-03 06:15:00,66.2,53.2,29.62,West,280,0.0,0.0,63,0.00,,,0.00,VWS V14.01,2013-06-03 10:15:00,
2013-06-03 06:18:00,66.2,53.2,29.62,SSW,195,0.0,0.0,63,0.00,,,0.00,VWS V14.01,2013-06-03 10:18:00,
2013-06-03 06:19:00,66.2,53.2,29.62,SSW,195,0.0,0.0,63,0.00,,,0.00,VWS V14.01,2013-06-03 10:19:00,
2013-06-03 06:20:00,66.2,53.2,29.62,SSW,195,0.0,0.0,63,0.00,,,0.00,VWS V14.01,2013-06-03 10:20:00,
2013-06-03 06:22:00,66.4,53.8,29.62,West,279,3.1,3.1,64,0.00,,,0.00,VWS V14.01,2013-06-03 10:22:00,
2013-06-03 06:24:00,66.2,53.7,29.62,West,279,0.0,0.0,64,0.00,,,0.00,VWS V14.01,2013-06-03 10:24:00,
2013-06-03 06:26:00,66.2,53.7,29.62,SW,231,2.2,3.6,64,0.00,,,0.00,VWS V14.01,2013-06-03 10:26:00,
2013-06-03 06:28:00,66.2,53.7,29.62,SW,231,0.0,0.0,64,0.00,,,0.00,VWS V14.01,2013-06-03 10:28:00,
2013-06-03 06:30:00,66.2,53.7,29.62,SSW,205,2.7,4.5,64,0.00,,,0.00,VWS V14.01,2013-06-03 10:30:00,
2013-06-03 06:33:00,66.2,53.7,29.62,WSW,248,0.0,0.0,64,0.00,,,0.00,VWS V14.01,2013-06-03 10:33:00,
2013-06-03 06:34:00,66.4,53.8,29.62,WSW,248,0.0,0.0,64,0.00,,,0.00,VWS V14.01,2013-06-03 10:34:00,
2013-06-03 06:35:00,66.4,53.8,29.62,WSW,248,0.0,0.0,64,0.00,,,0.00,VWS V14.01,2013-06-03 10:35:00,
2013-06-03 06:37:00,66.4,53.8,29.62,WSW,248,0.0,0.0,64,0.00,,,0.00,VWS V14.01,2013-06-03 10:37:00,
2013-06-03 06:38:00,66.4,53.8,29.62,SSW,195,0.0,0.0,64,0.00,,,0.00,VWS V14.01,2013-06-03 10:38:00,
2013-06-03 06:39:00,66.4,53.8,29.62,SSW,212,2.2,2.2,64,0.00,,,0.00,VWS V14.01,2013-06-03 10:39:00,
2013-06-03 06:40:00,66.4,53.8,29.62,SSW,212,0.0,2.2,64,0.00,,,0.00,VWS V14.01,2013-06-03 10:40:00,
2013-06-03 06:41:00,66.4,53.8,29.62,SSW,212,0.0,2.2,64,0.00,,,0.00,VWS V14.01,2013-06-03 10:41:00,
2013-06-03 06:42:00,66.4,53.8,29.62,SSW,212,0.0,0.0,64,0.00,,,0.00,VWS V14.01,2013-06-03 10:42:00,
2013-06-03 06:45:00,66.4,53.8,29.62,SSW,212,0.0,0.0,64,0.00,,,0.00,VWS V14.01,2013-06-03 10:45:00,
2013-06-03 06:47:00,66.4,53.8,29.62,SSW,212,0.0,0.0,64,0.00,,,0.00,VWS V14.01,2013-06-03 10:47:00,
2013-06-03 06:48:00,66.4,53.8,29.62,SSW,212,0.0,0.0,64,0.00,,,0.00,VWS V14.01,2013-06-03 10:48:00,
2013-06-03 06:49:00,66.4,53.8,29.62,SSW,212,0.0,0.0,64,0.00,,,0.00,VWS V14.01,2013-06-03 10:49:00,
2013-06-03 06:51:00,66.4,54.3,29.62,SSW,212,0.0,0.0,65,0.00,,,0.00,VWS V14.01,2013-06-03 10:51:00,
2013-06-03 06:53:00,66.4,54.3,29.62,SSW,212,0.0,0.0,65,0.00,,,0.00,VWS V14.01,2013-06-03 10:53:00,
2013-06-03 06:54:00,66.4,54.3,29.65,SSW,212,0.0,0.0,65,0.00,,,0.00,VWS V14.01,2013-06-03 10:54:00,
2013-06-03 06:55:00,66.4,54.3,29.65,SSW,211,3.1,3.6,65,0.00,,,0.00,VWS V14.01,2013-06-03 10:55:00,
2013-06-03 06:56:00,66.4,54.3,29.65,WNW,283,2.7,3.1,65,0.00,,,0.00,VWS V14.01,2013-06-03 10:56:00,
2013-06-03 06:58:00,66.4,54.3,29.65,West,269,0.0,0.0,65,0.00,,,0.00,VWS V14.01,2013-06-03 10:58:00,
2013-06-03 06:59:00,66.4,54.3,29.65,West,269,0.0,0.0,65,0.00,,,0.00,VWS V14.01,2013-06-03 10:59:00,
2013-06-03 07:01:00,66.4,54.3,29.65,SSW,208,0.0,3.6,65,0.00,,,0.00,VWS V14.01,2013-06-03 11:01:00,
2013-06-03 07:02:00,66.4,54.3,29.65,SSW,208,0.0,0.0,65,0.00,,,0.00,VWS V14.01,2013-06-03 11:02:00,
2013-06-03 07:04:00,66.4,54.3,29.65,SSW,208,0.0,0.0,65,0.00,,,0.00,VWS V14.01,2013-06-03 11:04:00,
2013-06-03 07:05:00,66.4,54.3,29.65,SSW,208,0.0,0.0,65,0.00,,,0.00,VWS V14.01,2013-06-03 11:05:00,
2013-06-03 07:06:00,66.6,54.4,29.65,SSW,208,0.0,0.0,65,0.00,,,0.00,VWS V14.01,2013-06-03 11:06:00,
2013-06-03 07:08:00,66.6,54.4,29.65,SSW,208,0.0,0.0,65,0.00,,,0.00,VWS V14.01,2013-06-03 11:08:00,
2013-06-03 07:10:00,66.6,54.4,29.65,SSW,208,0.0,0.0,65,0.00,,,0.00,VWS V14.01,2013-06-03 11:10:00,
2013-06-03 07:11:00,66.7,54.6,29.65,SSW,208,0.0,0.0,65,0.00,,,0.00,VWS V14.01,2013-06-03 11:11:00,
2013-06-03 07:12:00,66.7,54.6,29.65,SSW,208,0.0,0.0,65,0.00,,,0.00,VWS V14.01,2013-06-03 11:12:00,
2013-06-03 07:14:00,66.7,54.6,29.65,SSW,208,0.0,0.0,65,0.00,,,0.00,VWS V14.01,2013-06-03 11:14:00,
2013-06-03 07:15:00,66.7,54.6,29.65,SSW,208,0.0,0.0,65,0.00,,,0.00,VWS V14.01,2013-06-03 11:15:00,
2013-06-03 07:18:00,66.9,54.8,29.65,SSW,208,0.0,0.0,65,0.00,,,0.00,VWS V14.01,2013-06-03 11:18:00,
2013-06-03 07:19:00,66.9,54.8,29.65,SSW,208,0.0,0.0,65,0.00,,,0.00,VWS V14.01,2013-06-03 11:19:00,
2013-06-03 07:21:00,66.9,54.8,29.65,SSW,208,0.0,0.0,65,0.00,,,0.00,VWS V14.01,2013-06-03 11:21:00,
2013-06-03 07:23:00,66.9,54.8,29.65,SSW,208,0.0,0.0,65,0.00,,,0.00,VWS V14.01,2013-06-03 11:23:00,
2013-06-03 07:25:00,67.1,55.4,29.65,SSW,208,0.0,0.0,66,0.00,,,0.00,VWS V14.01,2013-06-03 11:25:00,
2013-06-03 07:28:00,67.1,55.4,29.65,SSW,208,0.0,0.0,66,0.00,,,0.00,VWS V14.01,2013-06-03 11:28:00,
2013-06-03 07:29:00,66.9,55.2,29.65,SSW,208,0.0,0.0,66,0.00,,,0.00,VWS V14.01,2013-06-03 11:29:00,
2013-06-03 07:32:00,67.1,55.4,29.65,SSW,208,0.0,0.0,66,0.00,,,0.00,VWS V14.01,2013-06-03 11:32:00,
2013-06-03 07:33:00,67.1,55.4,29.65,SSW,208,0.0,0.0,66,0.00,,,0.00,VWS V14.01,2013-06-03 11:33:00,
2013-06-03 07:34:00,67.1,55.4,29.65,SSW,208,0.0,0.0,66,0.00,,,0.00,VWS V14.01,2013-06-03 11:34:00,
2013-06-03 07:37:00,67.1,55.4,29.65,SSW,205,0.0,0.0,66,0.00,,,0.00,VWS V14.01,2013-06-03 11:37:00,
2013-06-03 07:38:00,67.1,55.4,29.65,SSW,205,0.0,0.0,66,0.00,,,0.00,VWS V14.01,2013-06-03 11:38:00,
2013-06-03 07:39:00,67.1,55.4,29.65,SW,233,0.0,0.0,66,0.00,,,0.00,VWS V14.01,2013-06-03 11:39:00,
2013-06-03 07:40:00,67.1,55.4,29.65,WSW,250,0.0,0.0,66,0.00,,,0.00,VWS V14.01,2013-06-03 11:40:00,
2013-06-03 07:44:00,67.1,55.4,29.65,SW,218,0.0,0.0,66,0.00,,,0.00,VWS V14.01,2013-06-03 11:44:00,
2013-06-03 07:45:00,67.3,55.5,29.65,SW,214,0.0,0.0,66,0.00,,,0.00,VWS V14.01,2013-06-03 11:45:00,
2013-06-03 07:46:00,67.3,55.5,29.65,SW,214,0.0,0.0,66,0.00,,,0.00,VWS V14.01,2013-06-03 11:46:00,
2013-06-03 07:49:00,67.3,55.5,29.65,NW,308,0.0,0.0,66,0.00,,,0.00,VWS V14.01,2013-06-03 11:49:00,
2013-06-03 07:51:00,67.3,56.0,29.65,WNW,299,0.0,0.0,67,0.00,,,0.00,VWS V14.01,2013-06-03 11:51:00,
2013-06-03 07:52:00,67.3,56.0,29.65,WNW,299,0.0,0.0,67,0.00,,,0.00,VWS V14.01,2013-06-03 11:52:00,
2013-06-03 07:53:00,67.3,56.0,29.65,WNW,299,0.0,0.0,67,0.00,,,0.00,VWS V14.01,2013-06-03 11:53:00,
2013-06-03 07:54:00,67.3,56.0,29.65,WNW,299,0.0,0.0,67,0.00,,,0.00,VWS V14.01,2013-06-03 11:54:00,
2013-06-03 07:56:00,67.3,56.0,29.65,WNW,299,0.0,0.0,67,0.00,,,0.00,VWS V14.01,2013-06-03 11:56:00,
2013-06-03 07:58:00,67.5,56.1,29.65,West,259,0.0,0.0,67,0.00,,,0.00,VWS V14.01,2013-06-03 11:58:00,
2013-06-03 07:59:00,67.5,56.1,29.65,WSW,238,0.0,2.2,67,0.00,,,0.00,VWS V14.01,2013-06-03 11:59:00,
2013-06-03 08:00:00,67.5,56.1,29.65,WSW,238,0.0,2.2,67,0.00,,,0.00,VWS V14.01,2013-06-03 12:00:00,
2013-06-03 08:02:00,67.5,56.1,29.65,South,190,3.1,3.1,67,0.00,,,0.00,VWS V14.01,2013-06-03 12:02:00,
2013-06-03 08:04:00,67.5,56.1,29.65,South,190,0.0,0.0,67,0.00,,,0.00,VWS V14.01,2013-06-03 12:04:00,
2013-06-03 08:05:00,67.5,56.1,29.65,South,190,0.0,0.0,67,0.00,,,0.00,VWS V14.01,2013-06-03 12:05:00,
2013-06-03 08:06:00,67.5,56.1,29.65,South,186,0.0,0.0,67,0.00,,,0.00,VWS V14.01,2013-06-03 12:06:00,
2013-06-03 08:10:00,67.6,56.3,29.65,West,277,0.0,0.0,67,0.00,,,0.00,VWS V14.01,2013-06-03 12:10:00,
2013-06-03 08:12:00,67.8,56.5,29.65,SSW,195,0.0,0.0,67,0.00,,,0.00,VWS V14.01,2013-06-03 12:12:00,
2013-06-03 08:13:00,67.8,56.9,29.65,South,190,3.1,4.0,68,0.00,,,0.00,VWS V14.01,2013-06-03 12:13:00,
2013-06-03 08:16:00,68.0,56.7,29.65,SSW,207,0.0,0.0,67,0.00,,,0.00,VWS V14.01,2013-06-03 12:16:00,
2013-06-03 08:17:00,68.0,56.7,29.65,West,280,0.0,0.0,67,0.00,,,0.00,VWS V14.01,2013-06-03 12:17:00,
2013-06-03 08:20:00,68.2,56.8,29.65,WSW,258,0.0,2.7,67,0.00,,,0.00,VWS V14.01,2013-06-03 12:20:00,
2013-06-03 08:22:00,68.2,56.8,29.65,WSW,258,0.0,0.0,67,0.00,,,0.00,VWS V14.01,2013-06-03 12:22:00,
2013-06-03 08:23:00,68.2,56.8,29.65,WSW,258,0.0,0.0,67,0.00,,,0.00,VWS V14.01,2013-06-03 12:23:00,
2013-06-03 08:26:00,68.4,57.0,29.65,WSW,258,0.0,0.0,67,0.00,,,0.00,VWS V14.01,2013-06-03 12:26:00,
2013-06-03 08:28:00,68.4,57.0,29.65,WSW,258,0.0,0.0,67,0.00,,,0.00,VWS V14.01,2013-06-03 12:28:00,
2013-06-03 08:29:00,68.5,57.2,29.65,WSW,258,0.0,0.0,67,0.00,,,0.00,VWS V14.01,2013-06-03 12:29:00,
2013-06-03 08:31:00,68.5,57.2,29.65,WSW,258,0.0,0.0,67,0.00,,,0.00,VWS V14.01,2013-06-03 12:31:00,
2013-06-03 08:33:00,68.7,57.3,29.65,WSW,258,0.0,0.0,67,0.00,,,0.00,VWS V14.01,2013-06-03 12:33:00,
2013-06-03 08:37:00,68.9,57.5,29.65,SSE,152,0.0,0.0,67,0.00,,,0.00,VWS V14.01,2013-06-03 12:37:00,
2013-06-03 08:38:00,68.9,57.5,29.65,SSE,164,0.0,0.0,67,0.00,,,0.00,VWS V14.01,2013-06-03 12:38:00,
2013-06-03 08:39:00,69.1,57.7,29.65,SSE,164,0.0,0.0,67,0.00,,,0.00,VWS V14.01,2013-06-03 12:39:00,
2013-06-03 08:40:00,69.1,57.7,29.65,SSE,164,0.0,0.0,67,0.00,,,0.00,VWS V14.01,2013-06-03 12:40:00,
2013-06-03 08:42:00,69.3,58.3,29.65,SE,136,0.0,0.0,68,0.00,,,0.00,VWS V14.01,2013-06-03 12:42:00,
2013-06-03 08:43:00,69.3,58.3,29.65,SE,139,0.0,0.0,68,0.00,,,0.00,VWS V14.01,2013-06-03 12:43:00,
2013-06-03 08:44:00,69.3,58.3,29.65,SSE,160,0.0,0.0,68,0.00,,,0.00,VWS V14.01,2013-06-03 12:44:00,
2013-06-03 08:45:00,69.4,58.4,29.65,SSE,164,0.0,0.0,68,0.00,,,0.00,VWS V14.01,2013-06-03 12:45:00,
2013-06-03 08:46:00,69.4,58.4,29.65,WSW,255,0.0,0.0,68,0.00,,,0.00,VWS V14.01,2013-06-03 12:46:00,
2013-06-03 08:48:00,69.4,58.4,29.65,WSW,250,0.0,0.0,68,0.00,,,0.00,VWS V14.01,2013-06-03 12:48:00,
2013-06-03 08:49:00,69.6,58.2,29.65,WSW,250,0.0,0.0,67,0.00,,,0.00,VWS V14.01,2013-06-03 12:49:00,
2013-06-03 08:51:00,69.6,58.2,29.65,WSW,250,0.0,0.0,67,0.00,,,0.00,VWS V14.01,2013-06-03 12:51:00,
2013-06-03 08:52:00,69.6,58.2,29.65,WSW,245,0.0,0.0,67,0.00,,,0.00,VWS V14.01,2013-06-03 12:52:00,
2013-06-03 08:53:00,69.8,57.9,29.65,SW,229,0.0,0.0,66,0.00,,,0.00,VWS V14.01,2013-06-03 12:53:00,
2013-06-03 08:56:00,69.8,57.9,29.65,NW,320,2.2,2.2,66,0.00,,,0.00,VWS V14.01,2013-06-03 12:56:00,
2013-06-03 08:57:00,70.0,57.7,29.65,NW,320,0.0,0.0,65,0.00,,,0.00,VWS V14.01,2013-06-03 12:57:00,
2013-06-03 08:59:00,70.0,57.7,29.65,NW,320,0.0,0.0,65,0.00,,,0.00,VWS V14.01,2013-06-03 12:59:00,
2013-06-03 09:02:00,70.2,58.3,29.65,SW,218,0.0,5.4,66,0.00,,,0.00,VWS V14.01,2013-06-03 13:02:00,
2013-06-03 09:03:00,70.2,57.9,29.65,SW,236,2.2,3.6,65,0.00,,,0.00,VWS V14.01,2013-06-03 13:03:00,
2013-06-03 09:04:00,70.3,58.0,29.65,WSW,239,0.0,3.6,65,0.00,,,0.00,VWS V14.01,2013-06-03 13:04:00,
2013-06-03 09:08:00,70.7,58.4,29.65,West,274,0.0,0.0,65,0.00,,,0.00,VWS V14.01,2013-06-03 13:08:00,
2013-06-03 09:09:00,70.7,58.4,29.65,WSW,258,0.0,2.7,65,0.00,,,0.00,VWS V14.01,2013-06-03 13:09:00,
2013-06-03 09:10:00,70.7,57.9,29.65,WSW,251,0.0,0.0,64,0.00,,,0.00,VWS V14.01,2013-06-03 13:10:00,
2013-06-03 09:13:00,70.9,57.7,29.65,WNW,299,0.0,3.1,63,0.00,,,0.00,VWS V14.01,2013-06-03 13:13:00,
2013-06-03 09:15:00,71.1,57.4,29.65,WNW,289,0.0,0.0,62,0.00,,,0.00,VWS V14.01,2013-06-03 13:15:00,
2013-06-03 09:16:00,71.1,57.4,29.65,WNW,285,0.0,0.0,62,0.00,,,0.00,VWS V14.01,2013-06-03 13:16:00,
2013-06-03 09:17:00,71.1,57.4,29.65,West,268,0.0,0.0,62,0.00,,,0.00,VWS V14.01,2013-06-03 13:17:00,
2013-06-03 09:18:00,71.1,57.4,29.65,WNW,282,0.0,0.0,62,0.00,,,0.00,VWS V14.01,2013-06-03 13:18:00,
2013-06-03 09:20:00,71.2,57.1,29.65,West,275,0.0,0.0,61,0.00,,,0.00,VWS V14.01,2013-06-03 13:20:00,
2013-06-03 09:23:00,71.2,56.7,29.65,West,260,0.0,0.0,60,0.00,,,0.00,VWS V14.01,2013-06-03 13:23:00,
2013-06-03 09:25:00,71.2,56.7,29.65,West,260,0.0,0.0,60,0.00,,,0.00,VWS V14.01,2013-06-03 13:25:00,
2013-06-03 09:26:00,71.2,57.1,29.65,West,260,0.0,0.0,61,0.00,,,0.00,VWS V14.01,2013-06-03 13:26:00,
2013-06-03 09:29:00,71.4,56.8,29.65,NNW,330,0.0,0.0,60,0.00,,,0.00,VWS V14.01,2013-06-03 13:29:00,
2013-06-03 09:30:00,71.4,56.4,29.65,North,353,2.2,2.7,59,0.00,,,0.00,VWS V14.01,2013-06-03 13:30:00,
2013-06-03 09:31:00,71.4,56.4,29.65,ENE,61,2.7,2.7,59,0.00,,,0.00,VWS V14.01,2013-06-03 13:31:00,
2013-06-03 09:32:00,71.4,56.8,29.65,NE,50,0.0,2.7,60,0.00,,,0.00,VWS V14.01,2013-06-03 13:32:00,
2013-06-03 09:35:00,71.6,56.1,29.65,West,261,0.0,3.6,58,0.00,,,0.00,VWS V14.01,2013-06-03 13:35:00,
2013-06-03 09:36:00,71.6,56.1,29.65,West,261,0.0,0.0,58,0.00,,,0.00,VWS V14.01,2013-06-03 13:36:00,
2013-06-03 09:37:00,71.6,56.1,29.65,West,260,2.2,2.7,58,0.00,,,0.00,VWS V14.01,2013-06-03 13:37:00,
2013-06-03 09:38:00,71.6,56.1,29.65,NW,304,0.0,2.2,58,0.00,,,0.00,VWS V14.01,2013-06-03 13:38:00,
2013-06-03 09:41:00,71.6,56.1,29.65,West,273,0.0,2.2,58,0.00,,,0.00,VWS V14.01,2013-06-03 13:41:00,
2013-06-03 09:42:00,71.8,56.2,29.65,West,273,0.0,0.0,58,0.00,,,0.00,VWS V14.01,2013-06-03 13:42:00,
2013-06-03 09:44:00,71.8,55.8,29.65,North,9,0.0,0.0,57,0.00,,,0.00,VWS V14.01,2013-06-03 13:44:00,
2013-06-03 09:46:00,71.8,55.8,29.65,NW,316,0.0,0.0,57,0.00,,,0.00,VWS V14.01,2013-06-03 13:46:00,
2013-06-03 09:47:00,71.8,55.8,29.65,West,268,0.0,0.0,57,0.00,,,0.00,VWS V14.01,2013-06-03 13:47:00,
2013-06-03 09:48:00,71.8,55.8,29.65,West,268,0.0,0.0,57,0.00,,,0.00,VWS V14.01,2013-06-03 13:48:00,
2013-06-03 09:49:00,72.0,55.9,29.65,WNW,301,0.0,0.0,57,0.00,,,0.00,VWS V14.01,2013-06-03 13:49:00,
2013-06-03 09:50:00,72.0,55.9,29.65,WSW,239,0.0,0.0,57,0.00,,,0.00,VWS V14.01,2013-06-03 13:50:00,
2013-06-03 09:52:00,72.0,55.9,29.65,WSW,239,0.0,0.0,57,0.00,,,0.00,VWS V14.01,2013-06-03 13:52:00,
2013-06-03 09:53:00,72.0,55.9,29.65,WSW,257,0.0,0.0,57,0.00,,,0.00,VWS V14.01,2013-06-03 13:53:00,
2013-06-03 09:55:00,72.1,56.1,29.65,NNW,339,0.0,3.1,57,0.00,,,0.00,VWS V14.01,2013-06-03 13:55:00,
2013-06-03 09:57:00,72.3,56.2,29.65,NNW,339,0.0,0.0,57,0.00,,,0.00,VWS V14.01,2013-06-03 13:57:00,
2013-06-03 09:58:00,72.3,56.2,29.65,WNW,292,0.0,0.0,57,0.00,,,0.00,VWS V14.01,2013-06-03 13:58:00,
2013-06-03 09:59:00,72.3,56.2,29.65,WSW,256,2.2,3.1,57,0.00,,,0.00,VWS V14.01,2013-06-03 13:59:00,
2013-06-03 10:00:00,72.3,55.8,29.65,WSW,251,0.0,3.1,56,0.00,,,0.00,VWS V14.01,2013-06-03 14:00:00,
2013-06-03 10:02:00,72.3,55.3,29.65,WSW,248,0.0,0.0,55,0.00,,,0.00,VWS V14.01,2013-06-03 14:02:00,
2013-06-03 10:03:00,72.3,55.3,29.65,WSW,248,0.0,0.0,55,0.00,,,0.00,VWS V14.01,2013-06-03 14:03:00,
2013-06-03 10:05:00,72.5,55.4,29.65,WSW,249,0.0,0.0,55,0.00,,,0.00,VWS V14.01,2013-06-03 14:05:00,
2013-06-03 10:06:00,72.5,55.4,29.65,WSW,248,0.0,0.0,55,0.00,,,0.00,VWS V14.01,2013-06-03 14:06:00,
2013-06-03 10:08:00,72.7,55.6,29.65,WNW,282,0.0,0.0,55,0.00,,,0.00,VWS V14.01,2013-06-03 14:08:00,
2013-06-03 10:09:00,72.7,55.6,29.65,WNW,282,0.0,0.0,55,0.00,,,0.00,VWS V14.01,2013-06-03 14:09:00,
2013-06-03 10:10:00,72.7,55.6,29.65,West,273,0.0,0.0,55,0.00,,,0.00,VWS V14.01,2013-06-03 14:10:00,
2013-06-03 10:12:00,72.7,55.1,29.65,West,267,0.0,4.0,54,0.00,,,0.00,VWS V14.01,2013-06-03 14:12:00,
2013-06-03 10:14:00,72.9,54.2,29.65,NE,34,0.0,4.0,52,0.00,,,0.00,VWS V14.01,2013-06-03 14:14:00,
2013-06-03 10:15:00,72.9,54.8,29.65,NNE,23,0.0,0.0,53,0.00,,,0.00,VWS V14.01,2013-06-03 14:15:00,
2013-06-03 10:17:00,73.0,55.4,29.65,NE,34,0.0,0.0,54,0.00,,,0.00,VWS V14.01,2013-06-03 14:17:00,
2013-06-03 10:18:00,73.0,55.4,29.65,NW,324,0.0,2.7,54,0.00,,,0.00,VWS V14.01,2013-06-03 14:18:00,
2013-06-03 10:19:00,73.0,55.4,29.65,WSW,250,2.7,3.6,54,0.00,,,0.00,VWS V14.01,2013-06-03 14:19:00,
2013-06-03 10:20:00,73.0,55.4,29.65,WSW,252,2.7,3.6,54,0.00,,,0.00,VWS V14.01,2013-06-03 14:20:00,
2013-06-03 10:23:00,73.0,54.9,29.65,NNW,339,0.0,0.0,53,0.00,,,0.00,VWS V14.01,2013-06-03 14:23:00,
2013-06-03 10:24:00,73.2,55.1,29.65,NW,325,0.0,0.0,53,0.00,,,0.00,VWS V14.01,2013-06-03 14:24:00,
2013-06-03 10:25:00,73.2,55.1,29.65,NW,325,0.0,0.0,53,0.00,,,0.00,VWS V14.01,2013-06-03 14:25:00,
2013-06-03 10:27:00,73.4,54.2,29.65,West,259,0.0,0.0,51,0.00,,,0.00,VWS V14.01,2013-06-03 14:27:00,
2013-06-03 10:28:00,73.4,54.2,29.65,West,259,0.0,0.0,51,0.00,,,0.00,VWS V14.01,2013-06-03 14:28:00,
2013-06-03 10:29:00,73.4,54.7,29.65,West,262,0.0,0.0,52,0.00,,,0.00,VWS V14.01,2013-06-03 14:29:00,
2013-06-03 10:30:00,73.6,54.9,29.65,WSW,238,2.2,2.7,52,0.00,,,0.00,VWS V14.01,2013-06-03 14:30:00,
2013-06-03 10:31:00,73.6,54.9,29.65,WSW,238,0.0,2.2,52,0.00,,,0.00,VWS V14.01,2013-06-03 14:31:00,
2013-06-03 10:33:00,73.9,55.2,29.65,WSW,238,0.0,0.0,52,0.00,,,0.00,VWS V14.01,2013-06-03 14:33:00,
2013-06-03 10:34:00,73.9,54.7,29.65,WSW,252,0.0,0.0,51,0.00,,,0.00,VWS V14.01,2013-06-03 14:34:00,
2013-06-03 10:38:00,74.3,55.0,29.65,NNE,20,0.0,2.7,51,0.00,,,0.00,VWS V14.01,2013-06-03 14:38:00,
2013-06-03 10:40:00,74.5,54.6,29.65,WSW,245,4.0,4.0,50,0.00,,,0.00,VWS V14.01,2013-06-03 14:40:00,
2013-06-03 10:41:00,74.7,54.8,29.65,North,350,0.0,4.0,50,0.00,,,0.00,VWS V14.01,2013-06-03 14:41:00,
2013-06-03 10:44:00,75.2,54.2,29.65,North,357,3.1,3.1,48,0.00,,,0.00,VWS V14.01,2013-06-03 14:44:00,
2013-06-03 10:45:00,75.4,54.3,29.65,North,357,0.0,3.1,48,0.00,,,0.00,VWS V14.01,2013-06-03 14:45:00,
2013-06-03 10:46:00,75.6,54.5,29.65,WNW,292,0.0,0.0,48,0.00,,,0.00,VWS V14.01,2013-06-03 14:46:00,
2013-06-03 10:50:00,76.3,54.0,29.65,WSW,251,2.7,2.7,46,0.00,,,0.00,VWS V14.01,2013-06-03 14:50:00,
2013-06-03 10:51:00,76.5,54.2,29.65,West,261,4.9,4.9,46,0.00,,,0.00,VWS V14.01,2013-06-03 14:51:00,
2013-06-03 10:52:00,76.6,54.3,29.65,NNE,18,0.0,0.0,46,0.00,,,0.00,VWS V14.01,2013-06-03 14:52:00,
2013-06-03 10:56:00,77.2,54.2,29.65,NNE,24,2.7,2.7,45,0.00,,,0.00,VWS V14.01,2013-06-03 14:56:00,
2013-06-03 10:57:00,77.4,54.4,29.65,NNE,22,0.0,2.7,45,0.00,,,0.00,VWS V14.01,2013-06-03 14:57:00,
2013-06-03 10:58:00,77.5,55.2,29.65,NW,318,3.6,5.4,46,0.00,,,0.00,VWS V14.01,2013-06-03 14:58:00,
2013-06-03 11:00:00,77.9,54.3,29.65,NNE,20,0.0,0.0,44,0.00,,,0.00,VWS V14.01,2013-06-03 15:00:00,
2013-06-03 11:01:00,77.9,54.3,29.65,NNE,20,0.0,0.0,44,0.00,,,0.00,VWS V14.01,2013-06-03 15:01:00,
2013-06-03 11:03:00,78.3,54.0,29.65,NNW,332,0.0,0.0,43,0.00,,,0.00,VWS V14.01,2013-06-03 15:03:00,
2013-06-03 11:06:00,78.6,52.3,29.65,West,273,0.0,3.6,40,0.00,,,0.00,VWS V14.01,2013-06-03 15:06:00,
2013-06-03 11:09:00,78.8,48.9,29.65,West,279,3.6,4.9,35,0.00,,,0.00,VWS V14.01,2013-06-03 15:09:00,
2013-06-03 11:11:00,78.8,46.5,29.65,WNW,299,3.6,3.6,32,0.00,,,0.00,VWS V14.01,2013-06-03 15:11:00,
2013-06-03 11:12:00,79.2,49.9,29.65,North,357,3.1,3.1,36,0.00,,,0.00,VWS V14.01,2013-06-03 15:12:00,
2013-06-03 11:14:00,79.3,50.8,29.65,West,265,2.7,3.6,37,0.00,,,0.00,VWS V14.01,2013-06-03 15:14:00,
2013-06-03 11:15:00,79.3,50.1,29.65,NW,319,0.0,0.0,36,0.00,,,0.00,VWS V14.01,2013-06-03 15:15:00,
2013-06-03 11:16:00,79.3,49.3,29.65,North,350,0.0,3.6,35,0.00,,,0.00,VWS V14.01,2013-06-03 15:16:00,
2013-06-03 11:18:00,79.5,49.5,29.65,NNE,16,2.7,4.0,35,0.00,,,0.00,VWS V14.01,2013-06-03 15:18:00,
2013-06-03 11:22:00,79.7,47.3,29.65,North,9,2.7,2.7,32,0.00,,,0.00,VWS V14.01,2013-06-03 15:22:00,
2013-06-03 11:23:00,79.7,48.1,29.65,North,357,2.7,2.7,33,0.00,,,0.00,VWS V14.01,2013-06-03 15:23:00,
2013-06-03 11:24:00,79.7,48.1,29.65,NW,325,3.1,3.1,33,0.00,,,0.00,VWS V14.01,2013-06-03 15:24:00,
2013-06-03 11:27:00,79.7,47.3,29.65,NNW,341,0.0,0.0,32,0.00,,,0.00,VWS V14.01,2013-06-03 15:27:00,
2013-06-03 11:28:00,79.9,48.2,29.65,North,11,4.0,4.0,33,0.00,,,0.00,VWS V14.01,2013-06-03 15:28:00,
2013-06-03 11:29:00,79.9,48.2,29.65,NE,54,4.9,4.9,33,0.00,,,0.00,VWS V14.01,2013-06-03 15:29:00,
2013-06-03 11:30:00,79.9,46.6,29.65,NW,307,3.6,4.0,31,0.00,,,0.00,VWS V14.01,2013-06-03 15:30:00,
2013-06-03 11:34:00,80.1,46.7,29.65,NW,307,2.7,3.1,31,0.00,,,0.00,VWS V14.01,2013-06-03 15:34:00,
2013-06-03 11:35:00,80.1,46.7,29.65,NW,320,0.0,3.1,31,0.00,,,0.00,VWS V14.01,2013-06-03 15:35:00,
2013-06-03 11:36:00,80.2,46.9,29.65,SW,227,2.2,3.6,31,0.00,,,0.00,VWS V14.01,2013-06-03 15:36:00,
2013-06-03 11:39:00,80.4,46.2,29.62,NNE,12,2.7,3.1,30,0.00,,,0.00,VWS V14.01,2013-06-03 15:39:00,
2013-06-03 11:40:00,80.4,45.3,29.62,SE,129,4.0,4.0,29,0.00,,,0.00,VWS V14.01,2013-06-03 15:40:00,
2013-06-03 11:42:00,80.4,45.3,29.62,NNW,333,2.2,5.8,29,0.00,,,0.00,VWS V14.01,2013-06-03 15:42:00,
2013-06-03 11:44:00,80.6,42.6,29.62,NW,319,2.2,3.6,26,0.00,,,0.00,VWS V14.01,2013-06-03 15:44:00,
2013-06-03 11:45:00,80.4,41.4,29.62,WSW,244,4.9,4.9,25,0.00,,,0.00,VWS V14.01,2013-06-03 15:45:00,
2013-06-03 11:46:00,80.6,41.6,29.62,WNW,297,4.0,4.0,25,0.00,,,0.00,VWS V14.01,2013-06-03 15:46:00,
2013-06-03 11:47:00,80.4,39.3,29.62,NNE,24,3.6,4.0,23,0.00,,,0.00,VWS V14.01,2013-06-03 15:47:00,
2013-06-03 11:51:00,80.6,43.6,29.62,ENE,70,2.7,4.9,27,0.00,,,0.00,VWS V14.01,2013-06-03 15:51:00,
2013-06-03 11:53:00,80.8,40.7,29.62,North,353,2.7,4.9,24,0.00,,,0.00,VWS V14.01,2013-06-03 15:53:00,
2013-06-03 11:55:00,81.0,40.8,29.62,NE,34,2.2,2.2,24,0.00,,,0.00,VWS V14.01,2013-06-03 15:55:00,
2013-06-03 11:56:00,81.1,41.0,29.62,South,174,2.2,2.2,24,0.00,,,0.00,VWS V14.01,2013-06-03 15:56:00,
2013-06-03 11:57:00,81.1,38.7,29.62,WSW,249,4.0,4.0,22,0.00,,,0.00,VWS V14.01,2013-06-03 15:57:00,
2013-06-03 11:58:00,81.3,38.9,29.62,NE,38,3.1,3.1,22,0.00,,,0.00,VWS V14.01,2013-06-03 15:58:00,
2013-06-03 12:00:00,81.3,38.9,29.62,NNW,331,0.0,3.1,22,0.00,,,0.00,VWS V14.01,2013-06-03 16:00:00,
2013-06-03 12:02:00,81.3,37.7,29.62,NW,325,4.0,5.4,21,0.00,,,0.00,VWS V14.01,2013-06-03 16:02:00,
2013-06-03 12:03:00,81.5,39.0,29.62,NNE,25,0.0,4.0,22,0.00,,,0.00,VWS V14.01,2013-06-03 16:03:00,
2013-06-03 12:04:00,81.5,37.8,29.62,NNE,20,0.0,2.7,21,0.00,,,0.00,VWS V14.01,2013-06-03 16:04:00,
2013-06-03 12:07:00,81.5,39.0,29.62,WNW,290,2.7,2.7,22,0.00,,,0.00,VWS V14.01,2013-06-03 16:07:00,
2013-06-03 12:08:00,81.5,39.0,29.62,NW,318,0.0,4.0,22,0.00,,,0.00,VWS V14.01,2013-06-03 16:08:00,
2013-06-03 12:10:00,81.7,39.2,29.62,NW,308,0.0,0.0,22,0.00,,,0.00,VWS V14.01,2013-06-03 16:10:00,
2013-06-03 12:11:00,81.7,39.2,29.62,North,0,5.4,5.4,22,0.00,,,0.00,VWS V14.01,2013-06-03 16:11:00,
2013-06-03 12:13:00,81.7,36.8,29.62,NE,40,4.0,4.9,20,0.00,,,0.00,VWS V14.01,2013-06-03 16:13:00,
2013-06-03 12:14:00,81.7,35.5,29.62,NNE,30,3.1,4.9,19,0.00,,,0.00,VWS V14.01,2013-06-03 16:14:00,
2013-06-03 12:15:00,81.7,36.8,29.62,NE,41,0.0,0.0,20,0.00,,,0.00,VWS V14.01,2013-06-03 16:15:00,
2013-06-03 12:16:00,81.7,36.8,29.62,North,353,4.0,4.0,20,0.00,,,0.00,VWS V14.01,2013-06-03 16:16:00,
2013-06-03 12:18:00,81.7,36.8,29.62,NW,311,3.1,3.1,20,0.00,,,0.00,VWS V14.01,2013-06-03 16:18:00,
2013-06-03 12:19:00,81.7,36.8,29.62,NNW,330,3.1,3.6,20,0.00,,,0.00,VWS V14.01,2013-06-03 16:19:00,
2013-06-03 12:20:00,81.7,36.8,29.62,NNW,330,0.0,3.6,20,0.00,,,0.00,VWS V14.01,2013-06-03 16:20:00,
2013-06-03 12:23:00,81.7,36.8,29.62,NNW,345,0.0,0.0,20,0.00,,,0.00,VWS V14.01,2013-06-03 16:23:00,
2013-06-03 12:25:00,81.9,36.9,29.62,NW,317,3.6,5.8,20,0.00,,,0.00,VWS V14.01,2013-06-03 16:25:00,
2013-06-03 12:28:00,81.9,32.8,29.62,SW,236,5.4,5.4,17,0.00,,,0.00,VWS V14.01,2013-06-03 16:28:00,
2013-06-03 12:29:00,82.0,33.0,29.62,WSW,243,4.0,5.8,17,0.00,,,0.00,VWS V14.01,2013-06-03 16:29:00,
2013-06-03 12:30:00,82.0,33.0,29.62,North,357,2.7,4.9,17,0.00,,,0.00,VWS V14.01,2013-06-03 16:30:00,
2013-06-03 12:31:00,82.0,33.0,29.62,NW,307,2.7,2.7,17,0.00,,,0.00,VWS V14.01,2013-06-03 16:31:00,
2013-06-03 12:35:00,82.2,33.1,29.62,NNW,330,2.7,4.9,17,0.00,,,0.00,VWS V14.01,2013-06-03 16:35:00,
2013-06-03 12:36:00,82.4,31.8,29.62,NNE,18,0.0,4.9,16,0.00,,,0.00,VWS V14.01,2013-06-03 16:36:00,
2013-06-03 12:37:00,82.4,31.8,29.62,North,4,2.7,4.9,16,0.00,,,0.00,VWS V14.01,2013-06-03 16:37:00,
2013-06-03 12:40:00,82.6,28.6,29.62,SW,229,4.0,5.4,14,0.00,,,0.00,VWS V14.01,2013-06-03 16:40:00,
2013-06-03 12:42:00,82.6,28.6,29.62,NW,312,0.0,2.2,14,0.00,,,0.00,VWS V14.01,2013-06-03 16:42:00,
2013-06-03 12:43:00,82.6,31.9,29.62,North,1,0.0,0.0,16,0.00,,,0.00,VWS V14.01,2013-06-03 16:43:00,
2013-06-03 12:47:00,82.8,28.8,29.62,West,278,0.0,3.6,14,0.00,,,0.00,VWS V14.01,2013-06-03 16:47:00,
2013-06-03 12:48:00,82.8,28.8,29.62,West,262,6.3,6.3,14,0.00,,,0.00,VWS V14.01,2013-06-03 16:48:00,
2013-06-03 12:49:00,82.8,28.8,29.62,NNE,14,0.0,2.7,14,0.00,,,0.00,VWS V14.01,2013-06-03 16:49:00,
2013-06-03 12:52:00,82.9,28.9,29.62,WSW,240,3.1,3.1,14,0.00,,,0.00,VWS V14.01,2013-06-03 16:52:00,
2013-06-03 12:53:00,82.9,28.9,29.62,WSW,241,0.0,3.6,14,0.00,,,0.00,VWS V14.01,2013-06-03 16:53:00,
2013-06-03 12:57:00,83.3,29.2,29.62,WSW,237,2.7,3.6,14,0.00,,,0.00,VWS V14.01,2013-06-03 16:57:00,
2013-06-03 12:58:00,83.3,29.2,29.62,WSW,237,0.0,2.7,14,0.00,,,0.00,VWS V14.01,2013-06-03 16:58:00,
2013-06-03 13:00:00,83.5,29.3,29.62,SSW,206,4.0,4.0,14,0.00,,,0.00,VWS V14.01,2013-06-03 17:00:00,
2013-06-03 13:03:00,83.5,23.5,29.62,NNW,328,3.6,5.4,11,0.00,,,0.00,VWS V14.01,2013-06-03 17:03:00,
2013-06-03 13:04:00,83.5,23.5,29.62,SSW,198,2.7,3.6,11,0.00,,,0.00,VWS V14.01,2013-06-03 17:04:00,
2013-06-03 13:05:00,83.5,23.5,29.62,WNW,285,2.7,3.6,11,0.00,,,0.00,VWS V14.01,2013-06-03 17:05:00,
2013-06-03 13:07:00,83.5,23.5,29.62,NNW,341,0.0,5.4,11,0.00,,,0.00,VWS V14.01,2013-06-03 17:07:00,
2013-06-03 13:08:00,83.5,23.5,29.62,West,279,2.7,3.1,11,0.00,,,0.00,VWS V14.01,2013-06-03 17:08:00,
2013-06-03 13:09:00,83.5,23.5,29.62,NE,56,2.7,3.1,11,0.00,,,0.00,VWS V14.01,2013-06-03 17:09:00,
2013-06-03 13:11:00,83.3,23.4,29.62,WNW,282,2.7,4.0,11,0.00,,,0.00,VWS V14.01,2013-06-03 17:11:00,
2013-06-03 13:13:00,83.1,23.2,29.62,West,265,0.0,3.6,11,0.00,,,0.00,VWS V14.01,2013-06-03 17:13:00,
2013-06-03 13:15:00,83.1,23.2,29.62,NW,305,3.6,4.0,11,0.00,,,0.00,VWS V14.01,2013-06-03 17:15:00,
2013-06-03 13:16:00,83.1,23.2,29.62,WSW,255,3.6,4.9,11,0.00,,,0.00,VWS V14.01,2013-06-03 17:16:00,
2013-06-03 13:19:00,83.1,23.2,29.62,WNW,300,0.0,0.0,11,0.00,,,0.00,VWS V14.01,2013-06-03 17:19:00,
2013-06-03 13:20:00,83.1,23.2,29.62,WSW,240,4.9,4.9,11,0.00,,,0.00,VWS V14.01,2013-06-03 17:20:00,
2013-06-03 13:22:00,82.9,23.1,29.62,South,191,2.2,2.7,11,0.00,,,0.00,VWS V14.01,2013-06-03 17:22:00,
2013-06-03 13:24:00,82.6,22.8,29.62,NW,305,0.0,3.6,11,0.00,,,0.00,VWS V14.01,2013-06-03 17:24:00,
2013-06-03 13:25:00,82.4,22.7,29.62,NW,305,0.0,0.0,11,0.00,,,0.00,VWS V14.01,2013-06-03 17:25:00,
2013-06-03 13:27:00,82.4,22.7,29.62,North,357,3.6,3.6,11,0.00,,,0.00,VWS V14.01,2013-06-03 17:27:00,
2013-06-03 13:28:00,82.2,24.6,29.62,NNW,335,0.0,3.6,12,0.00,,,0.00,VWS V14.01,2013-06-03 17:28:00,
2013-06-03 13:32:00,82.0,24.5,29.62,NNW,337,0.0,0.0,12,0.00,,,0.00,VWS V14.01,2013-06-03 17:32:00,
2013-06-03 13:33:00,82.0,24.5,29.62,North,9,0.0,0.0,12,0.00,,,0.00,VWS V14.01,2013-06-03 17:33:00,
2013-06-03 13:34:00,82.2,24.6,29.62,North,9,0.0,0.0,12,0.00,,,0.00,VWS V14.01,2013-06-03 17:34:00,
2013-06-03 13:37:00,82.4,22.7,29.62,NNW,344,3.1,3.1,11,0.00,,,0.00,VWS V14.01,2013-06-03 17:37:00,
2013-06-03 13:38:00,82.4,22.7,29.62,NNE,29,5.8,6.3,11,0.00,,,0.00,VWS V14.01,2013-06-03 17:38:00,
2013-06-03 13:39:00,82.4,22.7,29.62,North,0,4.0,5.8,11,0.00,,,0.00,VWS V14.01,2013-06-03 17:39:00,
2013-06-03 13:40:00,82.6,22.8,29.62,North,10,8.1,8.1,11,0.00,,,0.00,VWS V14.01,2013-06-03 17:40:00,
2013-06-03 13:42:00,82.6,22.8,29.62,WNW,303,0.0,2.7,11,0.00,,,0.00,VWS V14.01,2013-06-03 17:42:00,
2013-06-03 13:43:00,82.6,22.8,29.62,North,0,4.0,4.0,11,0.00,,,0.00,VWS V14.01,2013-06-03 17:43:00,
2013-06-03 13:45:00,82.4,22.7,29.62,North,10,0.0,4.0,11,0.00,,,0.00,VWS V14.01,2013-06-03 17:45:00,
2013-06-03 13:46:00,82.4,22.7,29.62,NE,38,2.7,2.7,11,0.00,,,0.00,VWS V14.01,2013-06-03 17:46:00,
2013-06-03 13:47:00,82.4,22.7,29.62,North,357,0.0,4.0,11,0.00,,,0.00,VWS V14.01,2013-06-03 17:47:00,
2013-06-03 13:48:00,82.4,22.7,29.62,North,357,0.0,0.0,11,0.00,,,0.00,VWS V14.01,2013-06-03 17:48:00,
2013-06-03 13:49:00,82.4,22.7,29.62,West,265,0.0,0.0,11,0.00,,,0.00,VWS V14.01,2013-06-03 17:49:00,
2013-06-03 13:51:00,82.4,22.7,29.62,NNW,333,0.0,0.0,11,0.00,,,0.00,VWS V14.01,2013-06-03 17:51:00,
2013-06-03 13:52:00,82.4,22.7,29.62,North,0,3.6,4.0,11,0.00,,,0.00,VWS V14.01,2013-06-03 17:52:00,
2013-06-03 13:53:00,82.4,22.7,29.62,NNW,348,0.0,3.1,11,0.00,,,0.00,VWS V14.01,2013-06-03 17:53:00,
2013-06-03 13:54:00,82.4,22.7,29.62,NNW,335,4.0,4.9,11,0.00,,,0.00,VWS V14.01,2013-06-03 17:54:00,
2013-06-03 13:56:00,82.2,24.6,29.62,NW,304,0.0,0.0,12,0.00,,,0.00,VWS V14.01,2013-06-03 17:56:00,
2013-06-03 13:58:00,82.2,24.6,29.62,North,1,2.2,4.0,12,0.00,,,0.00,VWS V14.01,2013-06-03 17:58:00,
2013-06-03 13:59:00,82.2,24.6,29.62,NNW,346,2.7,4.0,12,0.00,,,0.00,VWS V14.01,2013-06-03 17:59:00,
2013-06-03 14:00:00,82.2,24.6,29.62,NNW,342,5.8,5.8,12,0.00,,,0.00,VWS V14.01,2013-06-03 18:00:00,
2013-06-03 14:02:00,82.0,24.5,29.62,NNE,22,0.0,4.9,12,0.00,,,0.00,VWS V14.01,2013-06-03 18:02:00,
2013-06-03 14:03:00,82.0,24.5,29.62,NNE,25,4.0,5.4,12,0.00,,,0.00,VWS V14.01,2013-06-03 18:03:00,
2013-06-03 14:05:00,82.0,24.5,29.62,East,79,3.6,5.4,12,0.00,,,0.00,VWS V14.01,2013-06-03 18:05:00,
2013-06-03 14:07:00,82.0,24.5,29.62,North,353,5.8,5.8,12,0.00,,,0.00,VWS V14.01,2013-06-03 18:07:00,
2013-06-03 14:08:00,81.9,24.3,29.62,North,357,3.6,5.8,12,0.00,,,0.00,VWS V14.01,2013-06-03 18:08:00,
2013-06-03 14:09:00,81.9,24.3,29.62,North,357,8.1,8.1,12,0.00,,,0.00,VWS V14.01,2013-06-03 18:09:00,
2013-06-03 14:10:00,81.9,24.3,29.62,SW,232,2.7,8.1,12,0.00,,,0.00,VWS V14.01,2013-06-03 18:10:00,
2013-06-03 14:12:00,81.9,24.3,29.62,NNW,341,2.7,4.0,12,0.00,,,0.00,VWS V14.01,2013-06-03 18:12:00,
2013-06-03 14:13:00,81.7,24.2,29.62,ESE,104,0.0,5.4,12,0.00,,,0.00,VWS V14.01,2013-06-03 18:13:00,
2013-06-03 14:14:00,81.7,24.2,29.62,NNE,33,0.0,0.0,12,0.00,,,0.00,VWS V14.01,2013-06-03 18:14:00,
2013-06-03 14:16:00,81.7,24.2,29.62,NW,324,2.7,5.4,12,0.00,,,0.00,VWS V14.01,2013-06-03 18:16:00,
2013-06-03 14:17:00,81.5,24.0,29.62,ESE,109,4.9,4.9,12,0.00,,,0.00,VWS V14.01,2013-06-03 18:17:00,
2013-06-03 14:18:00,81.5,24.0,29.62,WNW,295,4.0,4.9,12,0.00,,,0.00,VWS V14.01,2013-06-03 18:18:00,
2013-06-03 14:19:00,81.5,24.0,29.62,NE,38,2.7,4.0,12,0.00,,,0.00,VWS V14.01,2013-06-03 18:19:00,
2013-06-03 14:21:00,81.3,23.9,29.62,WNW,297,2.7,4.9,12,0.00,,,0.00,VWS V14.01,2013-06-03 18:21:00,
2013-06-03 14:22:00,81.1,23.8,29.62,North,0,8.1,8.1,12,0.00,,,0.00,VWS V14.01,2013-06-03 18:22:00,
2013-06-03 14:24:00,81.1,23.8,29.62,NW,306,3.6,5.4,12,0.00,,,0.00,VWS V14.01,2013-06-03 18:24:00,
2013-06-03 14:27:00,81.0,23.6,29.62,North,10,3.6,4.9,12,0.00,,,0.00,VWS V14.01,2013-06-03 18:27:00,
2013-06-03 14:28:00,81.0,23.6,29.62,North,10,0.0,4.9,12,0.00,,,0.00,VWS V14.01,2013-06-03 18:28:00,
2013-06-03 14:29:00,81.0,23.6,29.62,North,9,3.6,5.4,12,0.00,,,0.00,VWS V14.01,2013-06-03 18:29:00,
2013-06-03 14:30:00,81.0,23.6,29.62,NW,318,6.3,6.3,12,0.00,,,0.00,VWS V14.01,2013-06-03 18:30:00,
2013-06-03 14:33:00,80.8,23.5,29.62,North,349,4.0,4.9,12,0.00,,,0.00,VWS V14.01,2013-06-03 18:33:00,
2013-06-03 14:34:00,80.6,23.4,29.62,NNE,20,6.3,7.2,12,0.00,,,0.00,VWS V14.01,2013-06-03 18:34:00,
2013-06-03 14:37:00,80.4,23.2,29.62,NNE,26,3.6,7.2,12,0.00,,,0.00,VWS V14.01,2013-06-03 18:37:00,
2013-06-03 14:38:00,80.2,23.1,29.62,North,0,5.4,5.8,12,0.00,,,0.00,VWS V14.01,2013-06-03 18:38:00,
2013-06-03 14:39:00,80.2,23.1,29.62,WNW,299,5.4,5.4,12,0.00,,,0.00,VWS V14.01,2013-06-03 18:39:00,
2013-06-03 14:43:00,79.9,22.8,29.62,NNE,21,4.5,5.4,12,0.00,,,0.00,VWS V14.01,2013-06-03 18:43:00,
2013-06-03 14:44:00,79.9,22.8,29.62,North,0,2.2,3.1,12,0.00,,,0.00,VWS V14.01,2013-06-03 18:44:00,
2013-06-03 14:45:00,79.9,22.8,29.62,North,6,5.8,5.8,12,0.00,,,0.00,VWS V14.01,2013-06-03 18:45:00,
2013-06-03 14:49:00,79.7,22.6,29.62,ENE,70,0.0,2.2,12,0.00,,,0.00,VWS V14.01,2013-06-03 18:49:00,
2013-06-03 14:50:00,79.9,22.8,29.62,WNW,287,0.0,2.2,12,0.00,,,0.00,VWS V14.01,2013-06-03 18:50:00,
2013-06-03 14:51:00,79.7,22.6,29.62,NE,39,3.1,3.1,12,0.00,,,0.00,VWS V14.01,2013-06-03 18:51:00,
2013-06-03 14:52:00,79.9,22.8,29.62,NW,321,4.0,4.0,12,0.00,,,0.00,VWS V14.01,2013-06-03 18:52:00,
2013-06-03 14:55:00,80.1,22.9,29.62,NNW,342,3.1,3.6,12,0.00,,,0.00,VWS V14.01,2013-06-03 18:55:00,
2013-06-03 14:57:00,80.1,22.9,29.62,West,275,3.6,3.6,12,0.00,,,0.00,VWS V14.01,2013-06-03 18:57:00,
2013-06-03 14:58:00,80.1,22.9,29.62,North,353,3.6,7.6,12,0.00,,,0.00,VWS V14.01,2013-06-03 18:58:00,
2013-06-03 15:00:00,80.1,22.9,29.62,NNE,20,3.1,3.1,12,0.00,,,0.00,VWS V14.01,2013-06-03 19:00:00,
2013-06-03 15:02:00,79.9,22.8,29.62,WNW,303,4.0,4.0,12,0.00,,,0.00,VWS V14.01,2013-06-03 19:02:00,
2013-06-03 15:03:00,79.9,22.8,29.62,WNW,303,3.6,3.6,12,0.00,,,0.00,VWS V14.01,2013-06-03 19:03:00,
2013-06-03 15:04:00,79.7,22.6,29.62,NNE,15,2.7,3.6,12,0.00,,,0.00,VWS V14.01,2013-06-03 19:04:00,
2013-06-03 15:05:00,79.5,22.5,29.62,North,4,2.7,5.4,12,0.00,,,0.00,VWS V14.01,2013-06-03 19:05:00,
2013-06-03 15:09:00,79.2,22.2,29.62,NW,321,0.0,3.1,12,0.00,,,0.00,VWS V14.01,2013-06-03 19:09:00,
2013-06-03 15:10:00,79.0,22.1,29.62,NNW,342,0.0,3.1,12,0.00,,,0.00,VWS V14.01,2013-06-03 19:10:00,
2013-06-03 15:11:00,79.0,22.1,29.62,WNW,302,3.6,4.5,12,0.00,,,0.00,VWS V14.01,2013-06-03 19:11:00,
2013-06-03 15:13:00,78.6,23.7,29.62,NNW,328,5.8,5.8,13,0.00,,,0.00,VWS V14.01,2013-06-03 19:13:00,
2013-06-03 15:14:00,78.4,23.6,29.62,NW,308,4.9,4.9,13,0.00,,,0.00,VWS V14.01,2013-06-03 19:14:00,
2013-06-03 15:15:00,78.3,23.4,29.62,NW,317,5.4,5.4,13,0.00,,,0.00,VWS V14.01,2013-06-03 19:15:00,
2013-06-03 15:16:00,78.3,23.4,29.62,NE,46,3.6,3.6,13,0.00,,,0.00,VWS V14.01,2013-06-03 19:16:00,
2013-06-03 15:17:00,78.1,23.3,29.62,North,353,2.2,5.4,13,0.00,,,0.00,VWS V14.01,2013-06-03 19:17:00,
2013-06-03 15:19:00,77.7,23.0,29.62,NW,305,3.1,3.1,13,0.00,,,0.00,VWS V14.01,2013-06-03 19:19:00,
2013-06-03 15:20:00,77.7,23.0,29.62,NNW,340,3.6,3.6,13,0.00,,,0.00,VWS V14.01,2013-06-03 19:20:00,
2013-06-03 15:21:00,77.5,22.9,29.62,NNE,27,3.6,4.0,13,0.00,,,0.00,VWS V14.01,2013-06-03 19:21:00,
2013-06-03 15:22:00,77.5,22.9,29.62,North,7,4.0,4.9,13,0.00,,,0.00,VWS V14.01,2013-06-03 19:22:00,
2013-06-03 15:24:00,77.4,22.7,29.62,NNE,14,2.2,2.2,13,0.00,,,0.00,VWS V14.01,2013-06-03 19:24:00,
2013-06-03 15:25:00,77.4,22.7,29.62,North,11,0.0,0.0,13,0.00,,,0.00,VWS V14.01,2013-06-03 19:25:00,
2013-06-03 15:27:00,77.2,22.6,29.62,NW,314,2.2,2.7,13,0.00,,,0.00,VWS V14.01,2013-06-03 19:27:00,
2013-06-03 15:28:00,77.2,22.6,29.62,North,357,0.0,2.2,13,0.00,,,0.00,VWS V14.01,2013-06-03 19:28:00,
2013-06-03 15:30:00,77.2,22.6,29.62,North,2,2.7,3.6,13,0.00,,,0.00,VWS V14.01,2013-06-03 19:30:00,
2013-06-03 15:31:00,77.2,22.6,29.62,WNW,302,0.0,0.0,13,0.00,,,0.00,VWS V14.01,2013-06-03 19:31:00,
2013-06-03 15:33:00,77.2,22.6,29.62,NW,323,3.1,3.1,13,0.00,,,0.00,VWS V14.01,2013-06-03 19:33:00,
2013-06-03 15:34:00,77.2,22.6,29.62,North,349,2.7,3.1,13,0.00,,,0.00,VWS V14.01,2013-06-03 19:34:00,
2013-06-03 15:37:00,77.4,22.7,29.62,NNW,339,3.6,3.6,13,0.00,,,0.00,VWS V14.01,2013-06-03 19:37:00,
2013-06-03 15:38:00,77.4,22.7,29.62,North,353,0.0,0.0,13,0.00,,,0.00,VWS V14.01,2013-06-03 19:38:00,
2013-06-03 15:39:00,77.4,22.7,29.62,North,353,0.0,0.0,13,0.00,,,0.00,VWS V14.01,2013-06-03 19:39:00,
2013-06-03 15:40:00,77.4,22.7,29.62,North,353,3.6,3.6,13,0.00,,,0.00,VWS V14.01,2013-06-03 19:40:00,
2013-06-03 15:43:00,77.4,22.7,29.62,NW,325,0.0,0.0,13,0.00,,,0.00,VWS V14.01,2013-06-03 19:43:00,
2013-06-03 15:44:00,77.4,22.7,29.62,NNW,348,0.0,0.0,13,0.00,,,0.00,VWS V14.01,2013-06-03 19:44:00,
2013-06-03 15:45:00,77.4,22.7,29.62,NNW,342,3.6,3.6,13,0.00,,,0.00,VWS V14.01,2013-06-03 19:45:00,
2013-06-03 15:46:00,77.4,22.7,29.62,NNW,327,2.2,4.0,13,0.00,,,0.00,VWS V14.01,2013-06-03 19:46:00,
2013-06-03 15:47:00,77.5,22.9,29.62,WNW,297,2.7,2.7,13,0.00,,,0.00,VWS V14.01,2013-06-03 19:47:00,
2013-06-03 15:50:00,77.5,22.9,29.62,North,0,2.7,5.4,13,0.00,,,0.00,VWS V14.01,2013-06-03 19:50:00,
2013-06-03 15:51:00,77.5,22.9,29.62,North,353,2.7,4.0,13,0.00,,,0.00,VWS V14.01,2013-06-03 19:51:00,
2013-06-03 15:52:00,77.5,22.9,29.62,North,3,3.1,4.9,13,0.00,,,0.00,VWS V14.01,2013-06-03 19:52:00,
2013-06-03 15:53:00,77.5,22.9,29.62,NNW,345,2.7,4.9,13,0.00,,,0.00,VWS V14.01,2013-06-03 19:53:00,
2013-06-03 15:55:00,77.5,22.9,29.62,North,5,3.1,3.1,13,0.00,,,0.00,VWS V14.01,2013-06-03 19:55:00,
2013-06-03 15:56:00,77.4,22.7,29.62,North,353,0.0,0.0,13,0.00,,,0.00,VWS V14.01,2013-06-03 19:56:00,
2013-06-03 15:58:00,77.4,22.7,29.62,NW,304,0.0,0.0,13,0.00,,,0.00,VWS V14.01,2013-06-03 19:58:00,
2013-06-03 16:00:00,77.4,22.7,29.62,North,0,0.0,0.0,13,0.00,,,0.00,VWS V14.01,2013-06-03 20:00:00,
2013-06-03 16:02:00,77.4,22.7,29.62,North,0,0.0,0.0,13,0.00,,,0.00,VWS V14.01,2013-06-03 20:02:00,
2013-06-03 16:03:00,77.4,22.7,29.62,NNW,348,0.0,0.0,13,0.00,,,0.00,VWS V14.01,2013-06-03 20:03:00,
2013-06-03 16:05:00,77.4,22.7,29.62,North,353,0.0,0.0,13,0.00,,,0.00,VWS V14.01,2013-06-03 20:05:00,
2013-06-03 16:06:00,77.2,22.6,29.62,North,357,0.0,0.0,13,0.00,,,0.00,VWS V14.01,2013-06-03 20:06:00,
2013-06-03 16:07:00,77.2,22.6,29.62,North,357,0.0,0.0,13,0.00,,,0.00,VWS V14.01,2013-06-03 20:07:00,
2013-06-03 16:08:00,77.2,22.6,29.62,North,353,0.0,0.0,13,0.00,,,0.00,VWS V14.01,2013-06-03 20:08:00,
2013-06-03 16:09:00,77.2,22.6,29.62,NNW,337,2.7,2.7,13,0.00,,,0.00,VWS V14.01,2013-06-03 20:09:00,
2013-06-03 16:10:00,77.2,22.6,29.62,North,7,2.7,2.7,13,0.00,,,0.00,VWS V14.01,2013-06-03 20:10:00,
2013-06-03 16:12:00,77.2,22.6,29.62,NW,307,2.7,2.7,13,0.00,,,0.00,VWS V14.01,2013-06-03 20:12:00,
2013-06-03 16:13:00,77.2,22.6,29.62,NW,318,0.0,0.0,13,0.00,,,0.00,VWS V14.01,2013-06-03 20:13:00,
2013-06-03 16:15:00,77.4,22.7,29.62,NW,321,0.0,0.0,13,0.00,,,0.00,VWS V14.01,2013-06-03 20:15:00,
2013-06-03 16:17:00,77.4,22.7,29.62,WNW,300,0.0,2.2,13,0.00,,,0.00,VWS V14.01,2013-06-03 20:17:00,
2013-06-03 16:18:00,77.4,22.7,29.62,North,11,2.7,3.6,13,0.00,,,0.00,VWS V14.01,2013-06-03 20:18:00,
2013-06-03 16:19:00,77.4,22.7,29.62,WNW,299,0.0,0.0,13,0.00,,,0.00,VWS V14.01,2013-06-03 20:19:00,
2013-06-03 16:20:00,77.4,22.7,29.62,NW,308,0.0,0.0,13,0.00,,,0.00,VWS V14.01,2013-06-03 20:20:00,
2013-06-03 16:22:00,77.4,22.7,29.62,WNW,300,0.0,3.1,13,0.00,,,0.00,VWS V14.01,2013-06-03 20:22:00,
2013-06-03 16:23:00,77.4,22.7,29.62,WNW,300,0.0,0.0,13,0.00,,,0.00,VWS V14.01,2013-06-03 20:23:00,
2013-06-03 16:27:00,77.4,22.7,29.62,WNW,283,0.0,2.7,13,0.00,,,0.00,VWS V14.01,2013-06-03 20:27:00,
2013-06-03 16:28:00,77.4,22.7,29.62,WSW,246,0.0,0.0,13,0.00,,,0.00,VWS V14.01,2013-06-03 20:28:00,
2013-06-03 16:29:00,77.4,22.7,29.62,WNW,296,0.0,0.0,13,0.00,,,0.00,VWS V14.01,2013-06-03 20:29:00,
2013-06-03 16:32:00,77.5,22.9,29.62,NNW,329,3.1,3.1,13,0.00,,,0.00,VWS V14.01,2013-06-03 20:32:00,
2013-06-03 16:33:00,77.5,22.9,29.62,NNE,13,0.0,0.0,13,0.00,,,0.00,VWS V14.01,2013-06-03 20:33:00,
2013-06-03 16:34:00,77.5,22.9,29.62,NNW,344,0.0,3.1,13,0.00,,,0.00,VWS V14.01,2013-06-03 20:34:00,
2013-06-03 16:35:00,77.5,22.9,29.62,NNW,344,0.0,3.1,13,0.00,,,0.00,VWS V14.01,2013-06-03 20:35:00,
2013-06-03 16:39:00,77.7,23.0,29.62,ENE,60,0.0,0.0,13,0.00,,,0.00,VWS V14.01,2013-06-03 20:39:00,
2013-06-03 16:40:00,77.7,23.0,29.62,West,267,2.2,4.9,13,0.00,,,0.00,VWS V14.01,2013-06-03 20:40:00,
2013-06-03 16:41:00,77.7,23.0,29.62,WNW,289,4.9,4.9,13,0.00,,,0.00,VWS V14.01,2013-06-03 20:41:00,
2013-06-03 16:42:00,77.9,23.1,29.62,WNW,294,3.1,3.6,13,0.00,,,0.00,VWS V14.01,2013-06-03 20:42:00,
2013-06-03 16:44:00,77.9,23.1,29.62,NNE,12,3.1,3.1,13,0.00,,,0.00,VWS V14.01,2013-06-03 20:44:00,
2013-06-03 16:45:00,78.1,23.3,29.62,NNE,31,3.6,3.6,13,0.00,,,0.00,VWS V14.01,2013-06-03 20:45:00,
2013-06-03 16:46:00,78.1,23.3,29.62,WNW,287,4.0,4.9,13,0.00,,,0.00,VWS V14.01,2013-06-03 20:46:00,
2013-06-03 16:47:00,78.1,23.3,29.62,WNW,283,4.0,4.0,13,0.00,,,0.00,VWS V14.01,2013-06-03 20:47:00,
2013-06-03 16:48:00,78.3,23.4,29.62,WSW,246,4.0,4.5,13,0.00,,,0.00,VWS V14.01,2013-06-03 20:48:00,
2013-06-03 16:49:00,78.3,23.4,29.62,WSW,253,0.0,5.4,13,0.00,,,0.00,VWS V14.01,2013-06-03 20:49:00,
2013-06-03 16:51:00,78.3,23.4,29.62,WSW,253,0.0,0.0,13,0.00,,,0.00,VWS V14.01,2013-06-03 20:51:00,
2013-06-03 16:52:00,78.4,23.6,29.62,SSW,195,0.0,0.0,13,0.00,,,0.00,VWS V14.01,2013-06-03 20:52:00,
2013-06-03 16:54:00,78.4,23.6,29.62,WNW,289,3.6,4.0,13,0.00,,,0.00,VWS V14.01,2013-06-03 20:54:00,
2013-06-03 16:55:00,78.6,23.7,29.62,WNW,292,0.0,2.2,13,0.00,,,0.00,VWS V14.01,2013-06-03 20:55:00,
2013-06-03 16:56:00,78.6,23.7,29.62,WNW,283,2.7,6.3,13,0.00,,,0.00,VWS V14.01,2013-06-03 20:56:00,
2013-06-03 16:57:00,78.6,23.7,29.62,NNW,342,6.7,6.7,13,0.00,,,0.00,VWS V14.01,2013-06-03 20:57:00,
2013-06-03 16:58:00,78.6,23.7,29.62,North,353,3.6,6.7,13,0.00,,,0.00,VWS V14.01,2013-06-03 20:58:00,
2013-06-03 17:00:00,78.6,23.7,29.62,WNW,288,2.7,3.6,13,0.00,,,0.00,VWS V14.01,2013-06-03 21:00:00,
2013-06-03 17:02:00,78.6,23.7,29.62,NNE,13,2.7,4.0,13,0.00,,,0.00,VWS V14.01,2013-06-03 21:02:00,
2013-06-03 17:03:00,78.4,23.6,29.62,NW,308,3.1,3.6,13,0.00,,,0.00,VWS V14.01,2013-06-03 21:03:00,
2013-06-03 17:05:00,78.4,23.6,29.62,West,260,5.4,6.3,13,0.00,,,0.00,VWS V14.01,2013-06-03 21:05:00,
2013-06-03 17:07:00,78.4,23.6,29.62,NNE,23,3.6,4.0,13,0.00,,,0.00,VWS V14.01,2013-06-03 21:07:00,
2013-06-03 17:08:00,78.4,23.6,29.62,SW,218,0.0,2.2,13,0.00,,,0.00,VWS V14.01,2013-06-03 21:08:00,
2013-06-03 17:10:00,78.4,23.6,29.62,NW,322,3.1,4.0,13,0.00,,,0.00,VWS V14.01,2013-06-03 21:10:00,
2013-06-03 17:11:00,78.4,23.6,29.62,West,278,2.7,3.1,13,0.00,,,0.00,VWS V14.01,2013-06-03 21:11:00,
2013-06-03 17:12:00,78.4,23.6,29.62,West,272,0.0,4.0,13,0.00,,,0.00,VWS V14.01,2013-06-03 21:12:00,
2013-06-03 17:15:00,78.4,23.6,29.62,SW,233,3.1,3.6,13,0.00,,,0.00,VWS V14.01,2013-06-03 21:15:00,
2013-06-03 17:16:00,78.3,23.4,29.62,WNW,291,3.6,4.0,13,0.00,,,0.00,VWS V14.01,2013-06-03 21:16:00,
2013-06-03 17:17:00,78.3,23.4,29.62,West,280,2.7,4.0,13,0.00,,,0.00,VWS V14.01,2013-06-03 21:17:00,
2013-06-03 17:20:00,78.3,23.4,29.62,NNW,331,0.0,3.1,13,0.00,,,0.00,VWS V14.01,2013-06-03 21:20:00,
2013-06-03 17:23:00,78.4,23.6,29.62,South,188,0.0,0.0,13,0.00,,,0.00,VWS V14.01,2013-06-03 21:23:00,
2013-06-03 17:24:00,78.4,23.6,29.62,NNW,338,5.4,5.4,13,0.00,,,0.00,VWS V14.01,2013-06-03 21:24:00,
2013-06-03 17:25:00,78.4,23.6,29.62,WSW,253,4.9,4.9,13,0.00,,,0.00,VWS V14.01,2013-06-03 21:25:00,
2013-06-03 17:26:00,78.4,23.6,29.62,NW,313,4.0,4.0,13,0.00,,,0.00,VWS V14.01,2013-06-03 21:26:00,
2013-06-03 17:28:00,78.4,23.6,29.62,West,265,0.0,0.0,13,0.00,,,0.00,VWS V14.01,2013-06-03 21:28:00,
2013-06-03 17:29:00,78.4,23.6,29.62,NW,313,2.2,4.0,13,0.00,,,0.00,VWS V14.01,2013-06-03 21:29:00,
2013-06-03 17:31:00,78.4,23.6,29.62,North,357,2.2,5.4,13,0.00,,,0.00,VWS V14.01,2013-06-03 21:31:00,
2013-06-03 17:32:00,78.4,23.6,29.62,North,1,2.2,3.1,13,0.00,,,0.00,VWS V14.01,2013-06-03 21:32:00,
2013-06-03 17:33:00,78.4,23.6,29.62,NW,315,2.2,5.8,13,0.00,,,0.00,VWS V14.01,2013-06-03 21:33:00,
2013-06-03 17:35:00,78.4,23.6,29.62,NNW,337,3.6,3.6,13,0.00,,,0.00,VWS V14.01,2013-06-03 21:35:00,
2013-06-03 17:37:00,78.4,23.6,29.62,North,357,3.1,3.1,13,0.00,,,0.00,VWS V14.01,2013-06-03 21:37:00,
2013-06-03 17:38:00,78.4,23.6,29.62,NW,310,3.6,5.4,13,0.00,,,0.00,VWS V14.01,2013-06-03 21:38:00,
2013-06-03 17:41:00,78.4,23.6,29.62,NW,322,2.7,5.4,13,0.00,,,0.00,VWS V14.01,2013-06-03 21:41:00,
2013-06-03 17:42:00,78.3,23.4,29.62,WNW,297,5.8,5.8,13,0.00,,,0.00,VWS V14.01,2013-06-03 21:42:00,
2013-06-03 17:44:00,78.3,23.4,29.62,NW,308,2.2,4.0,13,0.00,,,0.00,VWS V14.01,2013-06-03 21:44:00,
2013-06-03 17:45:00,78.3,23.4,29.62,WNW,287,0.0,3.6,13,0.00,,,0.00,VWS V14.01,2013-06-03 21:45:00,
2013-06-03 17:46:00,78.3,23.4,29.62,North,350,3.6,3.6,13,0.00,,,0.00,VWS V14.01,2013-06-03 21:46:00,
2013-06-03 17:48:00,78.3,23.4,29.62,NNE,20,0.0,2.7,13,0.00,,,0.00,VWS V14.01,2013-06-03 21:48:00,
2013-06-03 17:49:00,78.3,23.4,29.62,WNW,293,2.7,5.4,13,0.00,,,0.00,VWS V14.01,2013-06-03 21:49:00,
2013-06-03 17:52:00,78.3,23.4,29.62,SW,225,3.6,4.5,13,0.00,,,0.00,VWS V14.01,2013-06-03 21:52:00,
2013-06-03 17:53:00,78.3,23.4,29.62,West,259,2.7,5.4,13,0.00,,,0.00,VWS V14.01,2013-06-03 21:53:00,
2013-06-03 17:54:00,78.3,23.4,29.62,North,0,3.6,3.6,13,0.00,,,0.00,VWS V14.01,2013-06-03 21:54:00,
2013-06-03 17:55:00,78.3,23.4,29.62,North,3,3.6,3.6,13,0.00,,,0.00,VWS V14.01,2013-06-03 21:55:00,
2013-06-03 17:58:00,77.9,23.1,29.62,NNW,344,3.1,3.6,13,0.00,,,0.00,VWS V14.01,2013-06-03 21:58:00,
2013-06-03 18:00:00,77.7,23.0,29.62,NNW,345,2.2,4.0,13,0.00,,,0.00,VWS V14.01,2013-06-03 22:00:00,
2013-06-03 18:01:00,77.7,23.0,29.62,WNW,298,3.6,4.0,13,0.00,,,0.00,VWS V14.01,2013-06-03 22:01:00,
2013-06-03 18:03:00,77.5,22.9,29.62,North,0,0.0,2.2,13,0.00,,,0.00,VWS V14.01,2013-06-03 22:03:00,
2013-06-03 18:05:00,77.4,22.7,29.62,NNW,345,0.0,3.1,13,0.00,,,0.00,VWS V14.01,2013-06-03 22:05:00,
2013-06-03 18:06:00,77.4,22.7,29.62,West,277,0.0,0.0,13,0.00,,,0.00,VWS V14.01,2013-06-03 22:06:00,
2013-06-03 18:09:00,77.4,22.7,29.62,North,8,0.0,2.2,13,0.00,,,0.00,VWS V14.01,2013-06-03 22:09:00,
2013-06-03 18:10:00,77.4,22.7,29.62,North,0,5.4,5.4,13,0.00,,,0.00,VWS V14.01,2013-06-03 22:10:00,
2013-06-03 18:12:00,77.4,22.7,29.62,NNW,341,0.0,0.0,13,0.00,,,0.00,VWS V14.01,2013-06-03 22:12:00,
2013-06-03 18:13:00,77.4,22.7,29.62,East,96,0.0,4.0,13,0.00,,,0.00,VWS V14.01,2013-06-03 22:13:00,
2013-06-03 18:14:00,77.4,22.7,29.62,WNW,286,2.7,2.7,13,0.00,,,0.00,VWS V14.01,2013-06-03 22:14:00,
2013-06-03 18:15:00,77.4,22.7,29.62,West,271,0.0,2.7,13,0.00,,,0.00,VWS V14.01,2013-06-03 22:15:00,
2013-06-03 18:16:00,77.4,22.7,29.62,West,268,4.0,4.0,13,0.00,,,0.00,VWS V14.01,2013-06-03 22:16:00,
2013-06-03 18:18:00,77.5,22.9,29.62,NW,310,3.1,3.1,13,0.00,,,0.00,VWS V14.01,2013-06-03 22:18:00,
2013-06-03 18:21:00,77.5,22.9,29.62,NNW,332,3.6,6.3,13,0.00,,,0.00,VWS V14.01,2013-06-03 22:21:00,
2013-06-03 18:22:00,77.5,22.9,29.62,NNW,343,4.0,4.0,13,0.00,,,0.00,VWS V14.01,2013-06-03 22:22:00,
2013-06-03 18:23:00,77.5,22.9,29.59,North,349,3.6,3.6,13,0.00,,,0.00,VWS V14.01,2013-06-03 22:23:00,
2013-06-03 18:26:00,77.7,23.0,29.59,WNW,290,0.0,0.0,13,0.00,,,0.00,VWS V14.01,2013-06-03 22:26:00,
2013-06-03 18:27:00,77.7,23.0,29.59,NNW,336,0.0,2.2,13,0.00,,,0.00,VWS V14.01,2013-06-03 22:27:00,
2013-06-03 18:28:00,77.7,23.0,29.59,NNW,336,0.0,0.0,13,0.00,,,0.00,VWS V14.01,2013-06-03 22:28:00,
2013-06-03 18:29:00,77.7,23.0,29.59,North,0,2.7,3.1,13,0.00,,,0.00,VWS V14.01,2013-06-03 22:29:00,
2013-06-03 18:32:00,77.9,23.1,29.59,NNW,346,3.6,3.6,13,0.00,,,0.00,VWS V14.01,2013-06-03 22:32:00,
2013-06-03 18:33:00,77.9,23.1,29.59,NNE,28,0.0,3.6,13,0.00,,,0.00,VWS V14.01,2013-06-03 22:33:00,
2013-06-03 18:34:00,77.9,23.1,29.59,WNW,303,0.0,0.0,13,0.00,,,0.00,VWS V14.01,2013-06-03 22:34:00,
2013-06-03 18:35:00,77.9,23.1,29.59,West,273,0.0,0.0,13,0.00,,,0.00,VWS V14.01,2013-06-03 22:35:00,
2013-06-03 18:38:00,78.1,23.3,29.62,NW,308,0.0,2.7,13,0.00,,,0.00,VWS V14.01,2013-06-03 22:38:00,
2013-06-03 18:39:00,78.1,23.3,29.62,NW,316,0.0,0.0,13,0.00,,,0.00,VWS V14.01,2013-06-03 22:39:00,
2013-06-03 18:40:00,78.1,23.3,29.62,NW,316,0.0,0.0,13,0.00,,,0.00,VWS V14.01,2013-06-03 22:40:00,
2013-06-03 18:41:00,78.1,23.3,29.62,WNW,291,0.0,0.0,13,0.00,,,0.00,VWS V14.01,2013-06-03 22:41:00,
2013-06-03 18:44:00,78.3,23.4,29.62,WNW,288,4.0,4.0,13,0.00,,,0.00,VWS V14.01,2013-06-03 22:44:00,
2013-06-03 18:46:00,78.3,23.4,29.62,NNW,329,2.7,3.6,13,0.00,,,0.00,VWS V14.01,2013-06-03 22:46:00,
2013-06-03 18:47:00,78.3,23.4,29.62,NNW,329,0.0,2.7,13,0.00,,,0.00,VWS V14.01,2013-06-03 22:47:00,
2013-06-03 18:49:00,78.1,23.3,29.62,NNW,327,0.0,0.0,13,0.00,,,0.00,VWS V14.01,2013-06-03 22:49:00,
2013-06-03 18:50:00,78.1,23.3,29.62,West,269,0.0,0.0,13,0.00,,,0.00,VWS V14.01,2013-06-03 22:50:00,
2013-06-03 18:52:00,78.1,23.3,29.62,NNW,348,0.0,2.2,13,0.00,,,0.00,VWS V14.01,2013-06-03 22:52:00,
2013-06-03 18:53:00,78.1,23.3,29.62,SW,233,2.7,3.6,13,0.00,,,0.00,VWS V14.01,2013-06-03 22:53:00,
2013-06-03 18:54:00,78.1,23.3,29.62,West,259,2.7,2.7,13,0.00,,,0.00,VWS V14.01,2013-06-03 22:54:00,
2013-06-03 18:55:00,78.1,23.3,29.62,West,259,0.0,2.7,13,0.00,,,0.00,VWS V14.01,2013-06-03 22:55:00,
2013-06-03 18:58:00,78.1,23.3,29.62,WSW,254,4.5,4.5,13,0.00,,,0.00,VWS V14.01,2013-06-03 22:58:00,
2013-06-03 19:00:00,78.3,23.4,29.62,West,262,3.1,3.1,13,0.00,,,0.00,VWS V14.01,2013-06-03 23:00:00,
2013-06-03 19:01:00,78.3,23.4,29.62,WSW,242,2.7,3.1,13,0.00,,,0.00,VWS V14.01,2013-06-03 23:01:00,
2013-06-03 19:02:00,78.3,23.4,29.62,West,265,2.7,4.9,13,0.00,,,0.00,VWS V14.01,2013-06-03 23:02:00,
2013-06-03 19:06:00,78.3,23.4,29.62,NW,307,0.0,0.0,13,0.00,,,0.00,VWS V14.01,2013-06-03 23:06:00,
2013-06-03 19:08:00,78.3,23.4,29.62,West,259,0.0,2.2,13,0.00,,,0.00,VWS V14.01,2013-06-03 23:08:00,
2013-06-03 19:09:00,78.3,23.4,29.62,WSW,240,3.6,3.6,13,0.00,,,0.00,VWS V14.01,2013-06-03 23:09:00,
2013-06-03 19:10:00,78.1,23.3,29.62,WSW,244,4.9,5.4,13,0.00,,,0.00,VWS V14.01,2013-06-03 23:10:00,
2013-06-03 19:11:00,78.1,23.3,29.62,SSW,201,0.0,0.0,13,0.00,,,0.00,VWS V14.01,2013-06-03 23:11:00,
2013-06-03 19:14:00,77.9,23.1,29.62,West,268,0.0,0.0,13,0.00,,,0.00,VWS V14.01,2013-06-03 23:14:00,
2013-06-03 19:15:00,77.7,23.0,29.62,WNW,283,0.0,3.1,13,0.00,,,0.00,VWS V14.01,2013-06-03 23:15:00,
2013-06-03 19:16:00,77.7,23.0,29.62,WNW,283,0.0,0.0,13,0.00,,,0.00,VWS V14.01,2013-06-03 23:16:00,
2013-06-03 19:17:00,77.5,22.9,29.62,West,277,2.2,4.0,13,0.00,,,0.00,VWS V14.01,2013-06-03 23:17:00,
2013-06-03 19:20:00,77.4,16.6,29.62,WSW,246,2.7,3.6,10,0.00,,,0.00,VWS V14.01,2013-06-03 23:20:00,
2013-06-03 19:22:00,77.2,16.5,29.62,WSW,256,0.0,0.0,10,0.00,,,0.00,VWS V14.01,2013-06-03 23:22:00,
2013-06-03 19:23:00,77.0,16.3,29.62,West,262,0.0,0.0,10,0.00,,,0.00,VWS V14.01,2013-06-03 23:23:00,
2013-06-03 19:24:00,77.0,16.3,29.62,West,262,0.0,0.0,10,0.00,,,0.00,VWS V14.01,2013-06-03 23:24:00,
2013-06-03 19:25:00,77.0,16.3,29.62,West,266,0.0,0.0,10,0.00,,,0.00,VWS V14.01,2013-06-03 23:25:00,
2013-06-03 19:28:00,76.8,22.3,29.62,WNW,284,0.0,0.0,13,0.00,,,0.00,VWS V14.01,2013-06-03 23:28:00,
2013-06-03 19:29:00,76.6,22.1,29.62,WSW,244,2.2,3.1,13,0.00,,,0.00,VWS V14.01,2013-06-03 23:29:00,
2013-06-03 19:30:00,76.6,22.1,29.62,WSW,244,0.0,2.2,13,0.00,,,0.00,VWS V14.01,2013-06-03 23:30:00,
2013-06-03 19:31:00,76.6,22.1,29.62,West,259,3.6,3.6,13,0.00,,,0.00,VWS V14.01,2013-06-03 23:31:00,
2013-06-03 19:34:00,76.5,22.0,29.62,West,281,0.0,0.0,13,0.00,,,0.00,VWS V14.01,2013-06-03 23:34:00,
2013-06-03 19:35:00,76.5,22.0,29.62,West,262,0.0,0.0,13,0.00,,,0.00,VWS V14.01,2013-06-03 23:35:00,
2013-06-03 19:37:00,76.3,21.9,29.62,West,261,0.0,0.0,13,0.00,,,0.00,VWS V14.01,2013-06-03 23:37:00,
2013-06-03 19:41:00,76.1,21.7,29.62,WSW,249,0.0,0.0,13,0.00,,,0.00,VWS V14.01,2013-06-03 23:41:00,
2013-06-03 19:42:00,76.1,15.6,29.62,WSW,249,0.0,0.0,10,0.00,,,0.00,VWS V14.01,2013-06-03 23:42:00,
2013-06-03 19:44:00,75.9,21.6,29.62,WSW,249,0.0,0.0,13,0.00,,,0.00,VWS V14.01,2013-06-03 23:44:00,
2013-06-03 19:46:00,75.9,21.6,29.62,WSW,249,0.0,0.0,13,0.00,,,0.00,VWS V14.01,2013-06-03 23:46:00,
2013-06-03 19:47:00,75.9,21.6,29.62,WSW,249,0.0,0.0,13,0.00,,,0.00,VWS V14.01,2013-06-03 23:47:00,
2013-06-03 19:48:00,75.7,21.5,29.62,WSW,249,0.0,0.0,13,0.00,,,0.00,VWS V14.01,2013-06-03 23:48:00,
2013-06-03 19:49:00,75.7,21.5,29.62,WSW,249,0.0,0.0,13,0.00,,,0.00,VWS V14.01,2013-06-03 23:49:00,
2013-06-03 19:51:00,75.6,21.3,29.62,WSW,252,0.0,0.0,13,0.00,,,0.00,VWS V14.01,2013-06-03 23:51:00,
2013-06-03 19:52:00,75.6,21.3,29.62,WSW,252,0.0,0.0,13,0.00,,,0.00,VWS V14.01,2013-06-03 23:52:00,
2013-06-03 19:55:00,75.4,21.2,29.65,West,266,0.0,0.0,13,0.00,,,0.00,VWS V14.01,2013-06-03 23:55:00,
2013-06-03 19:56:00,75.4,21.2,29.65,West,270,0.0,0.0,13,0.00,,,0.00,VWS V14.01,2013-06-03 23:56:00,
2013-06-03 19:57:00,75.2,21.0,29.65,West,267,0.0,0.0,13,0.00,,,0.00,VWS V14.01,2013-06-03 23:57:00,
2013-06-03 19:58:00,75.2,21.0,29.65,West,267,0.0,0.0,13,0.00,,,0.00,VWS V14.01,2013-06-03 23:58:00,
2013-06-03 19:59:00,75.2,21.0,29.65,West,267,0.0,0.0,13,0.00,,,0.00,VWS V14.01,2013-06-03 23:59:00,
2013-06-03 20:00:00,75.0,20.9,29.65,West,267,0.0,0.0,13,0.00,,,0.00,VWS V14.01,2013-06-04 00:00:00,
2013-06-03 20:02:00,74.8,20.7,29.65,West,267,0.0,0.0,13,0.00,,,0.00,VWS V14.01,2013-06-04 00:02:00,
2013-06-03 20:04:00,74.8,20.7,29.65,West,267,0.0,0.0,13,0.00,,,0.00,VWS V14.01,2013-06-04 00:04:00,
2013-06-03 20:05:00,74.7,20.6,29.65,West,268,0.0,0.0,13,0.00,,,0.00,VWS V14.01,2013-06-04 00:05:00,
2013-06-03 20:09:00,74.5,20.5,29.65,West,267,0.0,0.0,13,0.00,,,0.00,VWS V14.01,2013-06-04 00:09:00,
2013-06-03 20:11:00,74.5,20.5,29.65,West,267,0.0,0.0,13,0.00,,,0.00,VWS V14.01,2013-06-04 00:11:00,
2013-06-03 20:12:00,74.3,20.3,29.65,West,267,0.0,0.0,13,0.00,,,0.00,VWS V14.01,2013-06-04 00:12:00,
2013-06-03 20:14:00,74.3,20.3,29.65,West,267,0.0,0.0,13,0.00,,,0.00,VWS V14.01,2013-06-04 00:14:00,
2013-06-03 20:15:00,74.1,20.2,29.65,West,267,0.0,0.0,13,0.00,,,0.00,VWS V14.01,2013-06-04 00:15:00,
2013-06-03 20:16:00,74.1,20.2,29.65,West,267,0.0,0.0,13,0.00,,,0.00,VWS V14.01,2013-06-04 00:16:00,
2013-06-03 20:17:00,73.9,20.0,29.65,West,267,0.0,0.0,13,0.00,,,0.00,VWS V14.01,2013-06-04 00:17:00,
2013-06-03 20:19:00,73.9,20.0,29.65,West,268,0.0,0.0,13,0.00,,,0.00,VWS V14.01,2013-06-04 00:19:00,
2013-06-03 20:20:00,73.8,19.9,29.65,West,268,0.0,0.0,13,0.00,,,0.00,VWS V14.01,2013-06-04 00:20:00,
2013-06-03 20:22:00,73.6,19.8,29.65,West,267,0.0,0.0,13,0.00,,,0.00,VWS V14.01,2013-06-04 00:22:00,
2013-06-03 20:23:00,73.6,19.8,29.65,West,268,0.0,0.0,13,0.00,,,0.00,VWS V14.01,2013-06-04 00:23:00,
2013-06-03 20:24:00,73.4,19.6,29.65,West,267,0.0,0.0,13,0.00,,,0.00,VWS V14.01,2013-06-04 00:24:00,
2013-06-03 20:26:00,73.4,19.6,29.65,West,267,0.0,0.0,13,0.00,,,0.00,VWS V14.01,2013-06-04 00:26:00,
2013-06-03 20:27:00,73.2,21.2,29.65,West,267,0.0,0.0,14,0.00,,,0.00,VWS V14.01,2013-06-04 00:27:00,
2013-06-03 20:28:00,73.2,21.2,29.65,West,268,0.0,0.0,14,0.00,,,0.00,VWS V14.01,2013-06-04 00:28:00,
2013-06-03 20:30:00,73.0,21.1,29.65,West,267,0.0,0.0,14,0.00,,,0.00,VWS V14.01,2013-06-04 00:30:00,
2013-06-03 20:32:00,73.0,21.1,29.65,West,267,0.0,0.0,14,0.00,,,0.00,VWS V14.01,2013-06-04 00:32:00,
2013-06-03 20:33:00,73.0,21.1,29.65,West,267,0.0,0.0,14,0.00,,,0.00,VWS V14.01,2013-06-04 00:33:00,
2013-06-03 20:34:00,72.9,20.9,29.65,West,267,0.0,0.0,14,0.00,,,0.00,VWS V14.01,2013-06-04 00:34:00,
2013-06-03 20:36:00,72.7,20.8,29.65,West,268,0.0,0.0,14,0.00,,,0.00,VWS V14.01,2013-06-04 00:36:00,
2013-06-03 20:37:00,72.7,20.8,29.65,West,267,0.0,0.0,14,0.00,,,0.00,VWS V14.01,2013-06-04 00:37:00,
2013-06-03 20:39:00,72.5,20.6,29.65,West,267,0.0,0.0,14,0.00,,,0.00,VWS V14.01,2013-06-04 00:39:00,
2013-06-03 20:41:00,72.3,20.5,29.65,West,267,0.0,0.0,14,0.00,,,0.00,VWS V14.01,2013-06-04 00:41:00,
2013-06-03 20:42:00,72.3,20.5,29.65,West,267,0.0,0.0,14,0.00,,,0.00,VWS V14.01,2013-06-04 00:42:00,
2013-06-03 20:44:00,72.1,20.4,29.65,West,267,0.0,0.0,14,0.00,,,0.00,VWS V14.01,2013-06-04 00:44:00,
2013-06-03 20:45:00,72.1,20.4,29.65,West,267,0.0,0.0,14,0.00,,,0.00,VWS V14.01,2013-06-04 00:45:00,
2013-06-03 20:47:00,72.0,20.2,29.65,West,267,0.0,0.0,14,0.00,,,0.00,VWS V14.01,2013-06-04 00:47:00,
2013-06-03 20:50:00,71.8,20.1,29.65,West,268,0.0,0.0,14,0.00,,,0.00,VWS V14.01,2013-06-04 00:50:00,
2013-06-03 20:51:00,71.6,19.9,29.65,West,267,0.0,0.0,14,0.00,,,0.00,VWS V14.01,2013-06-04 00:51:00,
2013-06-03 20:52:00,71.6,19.9,29.65,West,267,0.0,0.0,14,0.00,,,0.00,VWS V14.01,2013-06-04 00:52:00,
2013-06-03 20:53:00,71.4,19.8,29.65,West,267,0.0,0.0,14,0.00,,,0.00,VWS V14.01,2013-06-04 00:53:00,
2013-06-03 20:57:00,71.2,19.6,29.65,West,267,0.0,0.0,14,0.00,,,0.00,VWS V14.01,2013-06-04 00:57:00,
2013-06-03 20:58:00,71.1,19.5,29.65,West,267,0.0,0.0,14,0.00,,,0.00,VWS V14.01,2013-06-04 00:58:00,
2013-06-03 20:59:00,71.1,19.5,29.65,West,267,0.0,0.0,14,0.00,,,0.00,VWS V14.01,2013-06-04 00:59:00,
2013-06-03 21:02:00,70.7,19.2,29.65,West,268,0.0,0.0,14,0.00,,,0.00,VWS V14.01,2013-06-04 01:02:00,
2013-06-03 21:03:00,70.7,19.2,29.65,West,268,0.0,0.0,14,0.00,,,0.00,VWS V14.01,2013-06-04 01:03:00,
2013-06-03 21:04:00,70.7,19.2,29.65,West,268,0.0,0.0,14,0.00,,,0.00,VWS V14.01,2013-06-04 01:04:00,
2013-06-03 21:06:00,70.5,19.1,29.65,West,268,0.0,0.0,14,0.00,,,0.00,VWS V14.01,2013-06-04 01:06:00,
2013-06-03 21:07:00,70.3,23.5,29.65,West,268,0.0,0.0,17,0.00,,,0.00,VWS V14.01,2013-06-04 01:07:00,
2013-06-03 21:08:00,70.3,23.5,29.65,West,268,0.0,0.0,17,0.00,,,0.00,VWS V14.01,2013-06-04 01:08:00,
2013-06-03 21:11:00,70.2,23.4,29.65,West,268,0.0,0.0,17,0.00,,,0.00,VWS V14.01,2013-06-04 01:11:00,
2013-06-03 21:12:00,70.0,23.2,29.65,West,268,0.0,0.0,17,0.00,,,0.00,VWS V14.01,2013-06-04 01:12:00,
2013-06-03 21:13:00,70.0,23.2,29.65,West,268,0.0,0.0,17,0.00,,,0.00,VWS V14.01,2013-06-04 01:13:00,
2013-06-03 21:14:00,69.8,23.1,29.65,West,268,0.0,0.0,17,0.00,,,0.00,VWS V14.01,2013-06-04 01:14:00,
2013-06-03 21:18:00,69.6,22.9,29.65,West,268,0.0,0.0,17,0.00,,,0.00,VWS V14.01,2013-06-04 01:18:00,
2013-06-03 21:19:00,69.4,22.8,29.65,West,268,0.0,0.0,17,0.00,,,0.00,VWS V14.01,2013-06-04 01:19:00,
2013-06-03 21:20:00,69.4,26.7,29.65,West,268,0.0,0.0,20,0.00,,,0.00,VWS V14.01,2013-06-04 01:20:00,
2013-06-03 21:22:00,69.4,26.7,29.65,West,268,0.0,0.0,20,0.00,,,0.00,VWS V14.01,2013-06-04 01:22:00,
2013-06-03 21:25:00,69.3,26.5,29.65,West,268,0.0,0.0,20,0.00,,,0.00,VWS V14.01,2013-06-04 01:25:00,
2013-06-03 21:26:00,69.1,26.4,29.65,West,268,0.0,0.0,20,0.00,,,0.00,VWS V14.01,2013-06-04 01:26:00,
2013-06-03 21:28:00,69.1,26.4,29.65,West,268,0.0,0.0,20,0.00,,,0.00,VWS V14.01,2013-06-04 01:28:00,
2013-06-03 21:30:00,68.9,28.5,29.65,West,268,0.0,0.0,22,0.00,,,0.00,VWS V14.01,2013-06-04 01:30:00,
2013-06-03 21:31:00,68.7,28.4,29.65,West,268,0.0,0.0,22,0.00,,,0.00,VWS V14.01,2013-06-04 01:31:00,
2013-06-03 21:33:00,68.7,28.4,29.65,West,268,0.0,0.0,22,0.00,,,0.00,VWS V14.01,2013-06-04 01:33:00,
2013-06-03 21:34:00,68.7,28.4,29.65,West,268,0.0,0.0,22,0.00,,,0.00,VWS V14.01,2013-06-04 01:34:00,
2013-06-03 21:35:00,68.5,28.2,29.65,West,268,0.0,0.0,22,0.00,,,0.00,VWS V14.01,2013-06-04 01:35:00,
2013-06-03 21:38:00,68.4,28.1,29.65,West,268,0.0,0.0,22,0.00,,,0.00,VWS V14.01,2013-06-04 01:38:00,
2013-06-03 21:39:00,68.4,28.1,29.65,West,268,0.0,0.0,22,0.00,,,0.00,VWS V14.01,2013-06-04 01:39:00,
2013-06-03 21:40:00,68.4,28.1,29.65,West,268,0.0,0.0,22,0.00,,,0.00,VWS V14.01,2013-06-04 01:40:00,
2013-06-03 21:41:00,68.4,28.1,29.65,West,268,0.0,0.0,22,0.00,,,0.00,VWS V14.01,2013-06-04 01:41:00,
2013-06-03 21:44:00,68.2,29.0,29.65,West,268,0.0,0.0,23,0.00,,,0.00,VWS V14.01,2013-06-04 01:44:00,
2013-06-03 21:45:00,68.2,29.0,29.65,West,268,0.0,0.0,23,0.00,,,0.00,VWS V14.01,2013-06-04 01:45:00,
2013-06-03 21:46:00,68.2,29.0,29.65,West,268,0.0,0.0,23,0.00,,,0.00,VWS V14.01,2013-06-04 01:46:00,
2013-06-03 21:48:00,68.0,28.9,29.65,West,268,0.0,0.0,23,0.00,,,0.00,VWS V14.01,2013-06-04 01:48:00,
2013-06-03 21:49:00,68.0,28.9,29.65,West,268,0.0,0.0,23,0.00,,,0.00,VWS V14.01,2013-06-04 01:49:00,
2013-06-03 21:50:00,68.0,28.9,29.65,West,268,0.0,0.0,23,0.00,,,0.00,VWS V14.01,2013-06-04 01:50:00,
2013-06-03 21:52:00,68.0,28.9,29.65,West,268,0.0,0.0,23,0.00,,,0.00,VWS V14.01,2013-06-04 01:52:00,
2013-06-03 21:53:00,67.8,28.7,29.68,West,268,0.0,0.0,23,0.00,,,0.00,VWS V14.01,2013-06-04 01:53:00,
2013-06-03 21:56:00,67.8,29.7,29.68,West,268,0.0,0.0,24,0.00,,,0.00,VWS V14.01,2013-06-04 01:56:00,
2013-06-03 21:57:00,67.8,29.7,29.68,West,268,0.0,0.0,24,0.00,,,0.00,VWS V14.01,2013-06-04 01:57:00,
2013-06-03 21:58:00,67.8,29.7,29.68,West,268,0.0,0.0,24,0.00,,,0.00,VWS V14.01,2013-06-04 01:58:00,
2013-06-03 22:01:00,67.6,29.6,29.68,West,268,0.0,0.0,24,0.00,,,0.00,VWS V14.01,2013-06-04 02:01:00,
2013-06-03 22:02:00,67.6,29.6,29.68,West,268,0.0,0.0,24,0.00,,,0.00,VWS V14.01,2013-06-04 02:02:00,
2013-06-03 22:04:00,67.6,29.6,29.68,West,268,0.0,0.0,24,0.00,,,0.00,VWS V14.01,2013-06-04 02:04:00,
2013-06-03 22:05:00,67.6,29.6,29.68,West,268,0.0,0.0,24,0.00,,,0.00,VWS V14.01,2013-06-04 02:05:00,
2013-06-03 22:08:00,67.5,29.4,29.68,West,268,0.0,0.0,24,0.00,,,0.00,VWS V14.01,2013-06-04 02:08:00,
2013-06-03 22:10:00,67.5,29.4,29.68,West,268,0.0,0.0,24,0.00,,,0.00,VWS V14.01,2013-06-04 02:10:00,
2013-06-03 22:11:00,67.3,29.3,29.68,West,268,0.0,0.0,24,0.00,,,0.00,VWS V14.01,2013-06-04 02:11:00,
2013-06-03 22:12:00,67.3,29.3,29.68,West,268,0.0,0.0,24,0.00,,,0.00,VWS V14.01,2013-06-04 02:12:00,
2013-06-03 22:15:00,67.3,29.3,29.68,West,268,0.0,0.0,24,0.00,,,0.00,VWS V14.01,2013-06-04 02:15:00,
2013-06-03 22:16:00,67.3,29.3,29.68,West,268,0.0,0.0,24,0.00,,,0.00,VWS V14.01,2013-06-04 02:16:00,
2013-06-03 22:18:00,67.3,29.3,29.68,West,268,0.0,0.0,24,0.00,,,0.00,VWS V14.01,2013-06-04 02:18:00,
2013-06-03 22:21:00,67.3,29.3,29.68,West,268,0.0,0.0,24,0.00,,,0.00,VWS V14.01,2013-06-04 02:21:00,
2013-06-03 22:22:00,67.3,29.3,29.68,West,268,0.0,0.0,24,0.00,,,0.00,VWS V14.01,2013-06-04 02:22:00,
2013-06-03 22:23:00,67.3,29.3,29.68,West,268,0.0,0.0,24,0.00,,,0.00,VWS V14.01,2013-06-04 02:23:00,
2013-06-03 22:24:00,67.3,29.3,29.68,West,268,0.0,0.0,24,0.00,,,0.00,VWS V14.01,2013-06-04 02:24:00,
2013-06-03 22:26:00,67.3,29.3,29.68,WSW,257,2.7,2.7,24,0.00,,,0.00,VWS V14.01,2013-06-04 02:26:00,
2013-06-03 22:27:00,67.5,29.4,29.68,SW,236,3.1,3.1,24,0.00,,,0.00,VWS V14.01,2013-06-04 02:27:00,
2013-06-03 22:29:00,67.5,29.4,29.68,West,274,2.2,3.6,24,0.00,,,0.00,VWS V14.01,2013-06-04 02:29:00,
2013-06-03 22:30:00,67.5,29.4,29.68,West,274,0.0,0.0,24,0.00,,,0.00,VWS V14.01,2013-06-04 02:30:00,
2013-06-03 22:32:00,67.5,29.4,29.68,West,274,0.0,2.2,24,0.00,,,0.00,VWS V14.01,2013-06-04 02:32:00,
2013-06-03 22:35:00,67.6,29.6,29.68,SW,227,0.0,2.7,24,0.00,,,0.00,VWS V14.01,2013-06-04 02:35:00,
2013-06-03 22:38:00,67.6,29.6,29.68,West,266,3.1,3.1,24,0.00,,,0.00,VWS V14.01,2013-06-04 02:38:00,
2013-06-03 22:39:00,67.6,29.6,29.68,WSW,253,2.7,4.0,24,0.00,,,0.00,VWS V14.01,2013-06-04 02:39:00,
2013-06-03 22:41:00,67.6,29.6,29.68,West,276,0.0,3.1,24,0.00,,,0.00,VWS V14.01,2013-06-04 02:41:00,
2013-06-03 22:44:00,67.8,28.7,29.68,West,261,0.0,0.0,23,0.00,,,0.00,VWS V14.01,2013-06-04 02:44:00,
2013-06-03 22:46:00,67.8,28.7,29.68,WSW,244,2.2,2.7,23,0.00,,,0.00,VWS V14.01,2013-06-04 02:46:00,
2013-06-03 22:48:00,67.8,28.7,29.68,West,262,2.7,4.9,23,0.00,,,0.00,VWS V14.01,2013-06-04 02:48:00,
2013-06-03 22:49:00,67.8,28.7,29.68,WSW,247,2.7,4.0,23,0.00,,,0.00,VWS V14.01,2013-06-04 02:49:00,
2013-06-03 22:51:00,67.8,28.7,29.68,WSW,257,0.0,2.7,23,0.00,,,0.00,VWS V14.01,2013-06-04 02:51:00,
2013-06-03 22:53:00,67.8,28.7,29.68,WSW,257,0.0,2.7,23,0.00,,,0.00,VWS V14.01,2013-06-04 02:53:00,
2013-06-03 22:54:00,67.8,28.7,29.68,WSW,257,0.0,2.7,23,0.00,,,0.00,VWS V14.01,2013-06-04 02:54:00,
2013-06-03 22:56:00,67.8,28.7,29.68,West,268,0.0,2.2,23,0.00,,,0.00,VWS V14.01,2013-06-04 02:56:00,
2013-06-03 22:59:00,67.8,28.7,29.68,West,268,0.0,0.0,23,0.00,,,0.00,VWS V14.01,2013-06-04 02:59:00,
2013-06-03 23:00:00,67.6,28.5,29.68,West,268,0.0,0.0,23,0.00,,,0.00,VWS V14.01,2013-06-04 03:00:00,
2013-06-03 23:04:00,67.5,28.4,29.68,West,263,0.0,0.0,23,0.00,,,0.00,VWS V14.01,2013-06-04 03:04:00,
2013-06-03 23:05:00,67.5,28.4,29.68,West,264,0.0,0.0,23,0.00,,,0.00,VWS V14.01,2013-06-04 03:05:00,
2013-06-03 23:06:00,67.5,28.4,29.68,North,353,2.2,2.7,23,0.00,,,0.00,VWS V14.01,2013-06-04 03:06:00,
2013-06-03 23:08:00,67.3,28.2,29.68,North,353,0.0,0.0,23,0.00,,,0.00,VWS V14.01,2013-06-04 03:08:00,
2013-06-03 23:09:00,67.3,28.2,29.68,North,0,4.0,4.0,23,0.00,,,0.00,VWS V14.01,2013-06-04 03:09:00,
2013-06-03 23:10:00,67.3,28.2,29.68,NNW,335,0.0,3.6,23,0.00,,,0.00,VWS V14.01,2013-06-04 03:10:00,
2013-06-03 23:11:00,67.1,28.1,29.68,NNW,335,0.0,3.6,23,0.00,,,0.00,VWS V14.01,2013-06-04 03:11:00,
2013-06-03 23:12:00,67.1,28.1,29.68,NNW,335,0.0,0.0,23,0.00,,,0.00,VWS V14.01,2013-06-04 03:12:00,
2013-06-03 23:14:00,67.1,28.1,29.68,North,8,0.0,0.0,23,0.00,,,0.00,VWS V14.01,2013-06-04 03:14:00,
2013-06-03 23:15:00,67.1,28.1,29.68,NW,325,3.6,3.6,23,0.00,,,0.00,VWS V14.01,2013-06-04 03:15:00,
2013-06-03 23:16:00,67.1,28.1,29.68,WNW,299,2.7,3.6,23,0.00,,,0.00,VWS V14.01,2013-06-04 03:16:00,
2013-06-03 23:18:00,67.1,28.1,29.68,NNW,341,2.2,3.1,23,0.00,,,0.00,VWS V14.01,2013-06-04 03:18:00,
2013-06-03 23:20:00,66.9,27.9,29.68,NNW,335,0.0,2.7,23,0.00,,,0.00,VWS V14.01,2013-06-04 03:20:00,
2013-06-03 23:21:00,66.9,27.9,29.68,North,353,3.1,3.6,23,0.00,,,0.00,VWS V14.01,2013-06-04 03:21:00,
2013-06-03 23:23:00,66.9,27.9,29.71,North,4,2.7,2.7,23,0.00,,,0.00,VWS V14.01,2013-06-04 03:23:00,
2013-06-03 23:24:00,66.9,27.9,29.71,NW,321,3.6,3.6,23,0.00,,,0.00,VWS V14.01,2013-06-04 03:24:00,
2013-06-03 23:26:00,66.9,27.9,29.71,North,357,3.1,4.0,23,0.00,,,0.00,VWS V14.01,2013-06-04 03:26:00,
2013-06-03 23:27:00,66.9,27.9,29.71,North,357,2.2,3.1,23,0.00,,,0.00,VWS V14.01,2013-06-04 03:27:00,
2013-06-03 23:28:00,66.9,27.9,29.71,NW,321,0.0,3.1,23,0.00,,,0.00,VWS V14.01,2013-06-04 03:28:00,
2013-06-03 23:30:00,66.9,27.9,29.71,North,4,3.6,3.6,23,0.00,,,0.00,VWS V14.01,2013-06-04 03:30:00,
2013-06-03 23:33:00,66.9,27.9,29.71,NNW,335,0.0,4.9,23,0.00,,,0.00,VWS V14.01,2013-06-04 03:33:00,
2013-06-03 23:36:00,67.1,28.1,29.71,NNE,27,0.0,0.0,23,0.00,,,0.00,VWS V14.01,2013-06-04 03:36:00,
2013-06-03 23:37:00,67.1,28.1,29.71,WNW,302,0.0,0.0,23,0.00,,,0.00,VWS V14.01,2013-06-04 03:37:00,
2013-06-03 23:38:00,67.1,28.1,29.71,North,11,0.0,0.0,23,0.00,,,0.00,VWS V14.01,2013-06-04 03:38:00,
2013-06-03 23:40:00,67.1,28.1,29.71,North,353,2.7,3.1,23,0.00,,,0.00,VWS V14.01,2013-06-04 03:40:00,
2013-06-03 23:41:00,67.1,28.1,29.71,NNW,336,0.0,0.0,23,0.00,,,0.00,VWS V14.01,2013-06-04 03:41:00,
2013-06-03 23:42:00,66.9,27.9,29.71,NW,322,0.0,0.0,23,0.00,,,0.00,VWS V14.01,2013-06-04 03:42:00,
2013-06-03 23:43:00,66.9,27.9,29.71,NW,322,0.0,0.0,23,0.00,,,0.00,VWS V14.01,2013-06-04 03:43:00,
2013-06-03 23:44:00,66.9,27.9,29.71,NW,322,0.0,0.0,23,0.00,,,0.00,VWS V14.01,2013-06-04 03:44:00,
2013-06-03 23:45:00,66.9,27.9,29.71,NNE,15,0.0,0.0,23,0.00,,,0.00,VWS V14.01,2013-06-04 03:45:00,
2013-06-03 23:48:00,66.9,27.9,29.71,NW,309,2.2,2.2,23,0.00,,,0.00,VWS V14.01,2013-06-04 03:48:00,
2013-06-03 23:49:00,66.7,27.8,29.71,WNW,292,0.0,0.0,23,0.00,,,0.00,VWS V14.01,2013-06-04 03:49:00,
2013-06-03 23:50:00,66.7,27.8,29.71,NW,321,0.0,0.0,23,0.00,,,0.00,VWS V14.01,2013-06-04 03:50:00,
2013-06-03 23:51:00,66.7,27.8,29.71,NW,314,0.0,0.0,23,0.00,,,0.00,VWS V14.01,2013-06-04 03:51:00,
2013-06-03 23:53:00,66.7,27.8,29.71,NNW,331,0.0,0.0,23,0.00,,,0.00,VWS V14.01,2013-06-04 03:53:00,
2013-06-03 23:55:00,66.6,27.6,29.71,NNW,331,0.0,0.0,23,0.00,,,0.00,VWS V14.01,2013-06-04 03:55:00,
2013-06-03 23:56:00,66.6,27.6,29.71,NNW,331,0.0,0.0,23,0.00,,,0.00,VWS V14.01,2013-06-04 03:56:00,